Observation data for Goodnight on 07/05/2020      Previous  Date       Current Mesonet Observations  Soil Data  Daily Summary Page  Observations in Plain Language
KGO1 050500Z 35003KT 21/19 A3004 RMK A01 T02080186  RH  087%=      5-min Rain = 0
KGO1 050501Z 35003KT 21/19 A3004 RMK A01 T02080186  RH  087%=      5-min Rain = 0
KGO1 050502Z 35003KT 21/19 A3004 RMK A01 T02070186  RH  088%=      5-min Rain = 0
KGO1 050503Z 35003KT 21/19 A3004 RMK A01 T02070186  RH  088%=      5-min Rain = 0
KGO1 050504Z 35003KT 21/19 A3004 RMK A01 T02070186  RH  088%=      5-min Rain = 0
KGO1 050505Z 34003KT 21/19 A3004 RMK A01 T02060186  RH  088%=      5-min Rain = 0
KGO1 050506Z 34004KT 21/19 A3004 RMK A01 T02060186  RH  088%=      5-min Rain = 0
KGO1 050507Z 34004KT 21/19 A3004 RMK A01 T02060185  RH  088%=      5-min Rain = 0
KGO1 050508Z 34004KT 21/19 A3004 RMK A01 T02060185  RH  087%=      5-min Rain = 0
KGO1 050509Z 34004KT 21/19 A3004 RMK A01 T02070185  RH  087%=      5-min Rain = 0
KGO1 050510Z 35004KT 21/19 A3004 RMK A01 T02070185  RH  087%=      5-min Rain = 0
KGO1 050511Z 35004KT 21/19 A3004 RMK A01 T02060185  RH  088%=      5-min Rain = 0
KGO1 050512Z 35004KT 21/19 A3004 RMK A01 T02050186  RH  088%=      5-min Rain = 0
KGO1 050513Z 35004KT 21/19 A3004 RMK A01 T02050186  RH  089%=      5-min Rain = 0
KGO1 050514Z 36004KT 21/19 A3004 RMK A01 T02050185  RH  089%=      5-min Rain = 0
KGO1 050515Z 35004KT 20/19 A3004 RMK A01 T02040185  RH  089%=      5-min Rain = 0
KGO1 050516Z 35003KT 20/19 A3004 RMK A01 T02040185  RH  089%=      5-min Rain = 0
KGO1 050517Z 35003KT 20/19 A3004 RMK A01 T02040185  RH  089%=      5-min Rain = 0
KGO1 050518Z 33003KT 20/19 A3004 RMK A01 T02040186  RH  089%=      5-min Rain = 0
KGO1 050519Z 33003KT 21/19 A3004 RMK A01 T02050185  RH  089%=      5-min Rain = 0
KGO1 050520Z 33003KT 21/19 A3004 RMK A01 T02060185  RH  088%=      5-min Rain = 0
KGO1 050521Z 33003KT 21/19 A3004 RMK A01 T02060185  RH  088%=      5-min Rain = 0
KGO1 050522Z 33003KT 21/19 A3004 RMK A01 T02060186  RH  088%=      5-min Rain = 0
KGO1 050523Z 33004KT 21/19 A3004 RMK A01 T02060187  RH  088%=      5-min Rain = 0
KGO1 050524Z 32004KT 21/19 A3004 RMK A01 T02070187  RH  088%=      5-min Rain = 0
KGO1 050525Z 33004KT 21/19 A3004 RMK A01 T02070186  RH  088%=      5-min Rain = 0
KGO1 050526Z 33004KT 21/19 A3004 RMK A01 T02070186  RH  088%=      5-min Rain = 0
KGO1 050527Z 33004KT 21/19 A3004 RMK A01 T02070186  RH  088%=      5-min Rain = 0
KGO1 050528Z 34004KT 21/19 A3004 RMK A01 T02060186  RH  088%=      5-min Rain = 0
KGO1 050529Z 34004KT 21/19 A3004 RMK A01 T02060185  RH  088%=      5-min Rain = 0
KGO1 050530Z 35004KT 21/19 A3004 RMK A01 T02050185  RH  088%=      5-min Rain = 0
KGO1 050531Z 35004KT 21/18 A3004 RMK A01 T02050184  RH  088%=      5-min Rain = 0
KGO1 050532Z 35004KT 20/19 A3004 RMK A01 T02040185  RH  089%=      5-min Rain = 0
KGO1 050533Z 36004KT 20/19 A3004 RMK A01 T02040185  RH  089%=      5-min Rain = 0
KGO1 050534Z 36004KT 20/19 A3004 RMK A01 T02040185  RH  089%=      5-min Rain = 0
KGO1 050535Z 36004KT 20/19 A3004 RMK A01 T02040185  RH  089%=      5-min Rain = 0
KGO1 050536Z 36003KT 21/19 A3004 RMK A01 T02050185  RH  088%=      5-min Rain = 0
KGO1 050537Z 36003KT 21/19 A3004 RMK A01 T02050185  RH  088%=      5-min Rain = 0
KGO1 050538Z 36002KT 21/19 A3004 RMK A01 T02050185  RH  088%=      5-min Rain = 0
KGO1 050539Z 36002KT 21/19 A3004 RMK A01 T02050185  RH  088%=      5-min Rain = 0
KGO1 050540Z 00001KT 21/19 A3004 RMK A01 T02050185  RH  088%=      5-min Rain = 0
KGO1 050541Z 01001KT 21/19 A3005 RMK A01 T02050185  RH  088%=      5-min Rain = 0
KGO1 050542Z 36002KT 21/19 A3005 RMK A01 T02050185  RH  088%=      5-min Rain = 0
KGO1 050543Z 35002KT 21/19 A3005 RMK A01 T02050185  RH  088%=      5-min Rain = 0
KGO1 050544Z 35003KT 21/19 A3005 RMK A01 T02060185  RH  088%=      5-min Rain = 0
KGO1 050545Z 35003KT 21/19 A3005 RMK A01 T02060185  RH  087%=      5-min Rain = 0
KGO1 050546Z 35002KT 21/19 A3005 RMK A01 T02080185  RH  087%=      5-min Rain = 0
KGO1 050547Z 35002KT 21/19 A3005 RMK A01 T02080185  RH  087%=      5-min Rain = 0
KGO1 050548Z 34002KT 21/19 A3005 RMK A01 T02080185  RH  087%=      5-min Rain = 0
KGO1 050549Z 33002KT 21/19 A3005 RMK A01 T02080185  RH  087%=      5-min Rain = 0
KGO1 050550Z 31001KT 21/19 A3005 RMK A01 T02080186  RH  087%=      5-min Rain = 0
KGO1 050551Z 31002KT 21/19 A3005 RMK A01 T02080186  RH  087%=      5-min Rain = 0
KGO1 050552Z 31002KT 21/19 A3005 RMK A01 T02090187  RH  087%=      5-min Rain = 0
KGO1 050553Z 30003KT 21/19 A3005 RMK A01 T02110189  RH  087%=      5-min Rain = 0
KGO1 050554Z 29003KT 21/19 A3005 RMK A01 T02110189  RH  087%=      5-min Rain = 0
KGO1 050555Z 29003KT 21/19 A3005 RMK A01 T02120189  RH  087%=      5-min Rain = 0
KGO1 050556Z 30003KT 21/19 A3005 RMK A01 T02120190  RH  087%=      5-min Rain = 0
KGO1 050557Z 30003KT 21/19 A3005 RMK A01 T02110188  RH  087%=      5-min Rain = 0
KGO1 050558Z 30003KT 21/19 A3005 RMK A01 T02110188  RH  087%=      5-min Rain = 0
KGO1 050559Z 29003KT 21/19 A3005 RMK A01 T02110188  RH  087%=      5-min Rain = 0
KGO1 050600Z 29003KT 21/19 A3005 RMK A01 T02110188  RH  087%=      5-min Rain = 0
KGO1 050601Z 29003KT 21/19 A3005 RMK A01 T02110190  RH  087%=      5-min Rain = 0
KGO1 050602Z 29003KT 21/19 A3005 RMK A01 T02120191  RH  088%=      5-min Rain = 0
KGO1 050603Z 29003KT 21/19 A3005 RMK A01 T02120191  RH  088%=      5-min Rain = 0
KGO1 050604Z 29003KT 21/19 A3005 RMK A01 T02120191  RH  088%=      5-min Rain = 0
KGO1 050605Z 30003KT 21/19 A3005 RMK A01 T02120190  RH  088%=      5-min Rain = 0
KGO1 050606Z 30003KT 21/19 A3005 RMK A01 T02120191  RH  087%=      5-min Rain = 0
KGO1 050607Z 30004KT 21/19 A3005 RMK A01 T02130191  RH  087%=      5-min Rain = 0
KGO1 050608Z 30005KT 21/19 A3005 RMK A01 T02130191  RH  088%=      5-min Rain = 0
KGO1 050609Z 29006KT 21/19 A3006 RMK A01 T02120191  RH  088%=      5-min Rain = 0
KGO1 050610Z 29009KT 21/19 A3006 RMK A01 T02120192  RH  088%=      5-min Rain = 0
KGO1 050611Z 29013KT 21/19 A3007 RMK A01 T02120191  RH  088%=      5-min Rain = 0
KGO1 050612Z 29019KT 21/19 A3008 RMK A01 T02140191  RH  087%=      5-min Rain = 0
KGO1 050613Z 29018KT 22/19 A3008 RMK A01 T02150192  RH  087%=      5-min Rain = 0
KGO1 050614Z 29019KT 22/19 A3008 RMK A01 T02160190  RH  085%=      5-min Rain = 0
KGO1 050615Z 30019KT 22/19 A3008 RMK A01 T02190187  RH  082%=      5-min Rain = 0
KGO1 050616Z 30017KT 22/19 A3008 RMK A01 T02220185  RH  079%=      5-min Rain = 0
KGO1 050617Z 30018KT 23/18 A3009 RMK A01 T02250184  RH  077%=      5-min Rain = 0
KGO1 050618Z 30019KT 23/18 A3009 RMK A01 T02270181  RH  075%=      5-min Rain = 0
KGO1 050619Z 29016KT 23/18 A3009 RMK A01 T02300178  RH  072%=      5-min Rain = 0
KGO1 050620Z 30019G28KT 23/17 A3008 RMK A01 T02340172  RH  068%=      5-min Rain = 0
KGO1 050621Z 30021G26KT 24/17 A3009 RMK A01 T02410168  RH  064%=      5-min Rain = 0
KGO1 050622Z 30022G27KT 24/17 A3009 RMK A01 T02440174  RH  065%=      5-min Rain = 0
KGO1 050623Z 30023KT 24/17 A3009 RMK A01 T02430174  RH  066%=      5-min Rain = 0
KGO1 050624Z 30019KT 24/18 A3009 RMK A01 T02410175  RH  066%=      5-min Rain = 0
KGO1 050625Z 31020KT 24/18 A3009 RMK A01 T02390175  RH  067%=      5-min Rain = 0
KGO1 050626Z 31017G22KT 24/18 A3009 RMK A01 T02380176  RH  068%=      5-min Rain = 0
KGO1 050627Z 30015KT 24/18 A3009 RMK A01 T02360176  RH  069%=      5-min Rain = 0
KGO1 050628Z 30015G20KT 23/18 A301 RMK A01 T02340177  RH  071%=      5-min Rain = 0
KGO1 050629Z 30018KT 23/18 A301 RMK A01 T02320177  RH  071%=      5-min Rain = 0
KGO1 050630Z 30019KT 23/18 A301 RMK A01 T02320177  RH  071%=      5-min Rain = 0
KGO1 050631Z 30018G23KT 23/18 A301 RMK A01 T02310178  RH  072%=      5-min Rain = 0
KGO1 050632Z 29017KT 23/18 A301 RMK A01 T02310178  RH  072%=      5-min Rain = 0
KGO1 050633Z 30017KT 23/18 A301 RMK A01 T02300178  RH  072%=      5-min Rain = 0
KGO1 050634Z 30015KT 23/18 A301 RMK A01 T02300179  RH  073%=      5-min Rain = 0
KGO1 050635Z 30018KT 23/18 A301 RMK A01 T02300178  RH  073%=      5-min Rain = 0
KGO1 050636Z 30016KT 23/18 A301 RMK A01 T02300178  RH  073%=      5-min Rain = 0
KGO1 050637Z 30018KT 23/18 A301 RMK A01 T02300178  RH  073%=      5-min Rain = 0
KGO1 050638Z 30017KT 23/18 A301 RMK A01 T02300179  RH  073%=      5-min Rain = 0
KGO1 050639Z 30017KT 23/18 A301 RMK A01 T02300178  RH  073%=      5-min Rain = 0
KGO1 050640Z 29018KT 23/18 A301 RMK A01 T02300178  RH  073%=      5-min Rain = 0
KGO1 050641Z 30019KT 23/18 A301 RMK A01 T02300178  RH  073%=      5-min Rain = 0
KGO1 050642Z 30017KT 23/18 A301 RMK A01 T02300178  RH  073%=      5-min Rain = 0
KGO1 050643Z 30015KT 23/18 A301 RMK A01 T02300179  RH  073%=      5-min Rain = 0
KGO1 050644Z 30017KT 23/18 A301 RMK A01 T02300179  RH  073%=      5-min Rain = 0
KGO1 050645Z 30016KT 23/18 A301 RMK A01 T02300178  RH  073%=      5-min Rain = 0
KGO1 050646Z 30016KT 23/18 A301 RMK A01 T02300178  RH  073%=      5-min Rain = 0
KGO1 050647Z 30015KT 23/18 A301 RMK A01 T02300178  RH  073%=      5-min Rain = 0
KGO1 050648Z 30015KT 23/18 A301 RMK A01 T02300179  RH  073%=      5-min Rain = 0
KGO1 050649Z 30017KT 23/18 A301 RMK A01 T02290179  RH  073%=      5-min Rain = 0
KGO1 050650Z 30018KT 23/18 A301 RMK A01 T02290180  RH  074%=      5-min Rain = 0
KGO1 050651Z 30018KT 23/18 A301 RMK A01 T02290180  RH  074%=      5-min Rain = 0
KGO1 050652Z 30017KT 23/18 A301 RMK A01 T02280180  RH  074%=      5-min Rain = 0
KGO1 050653Z 30017KT 23/18 A301 RMK A01 T02280180  RH  074%=      5-min Rain = 0
KGO1 050654Z 29014KT 23/18 A301 RMK A01 T02270181  RH  075%=      5-min Rain = 0
KGO1 050655Z 30016G21KT 23/18 A301 RMK A01 T02270181  RH  075%=      5-min Rain = 0
KGO1 050656Z 30017KT 23/18 A301 RMK A01 T02270179  RH  074%=      5-min Rain = 0
KGO1 050657Z 30018KT 23/18 A301 RMK A01 T02270177  RH  074%=      5-min Rain = 0
KGO1 050658Z 30020KT 23/18 A301 RMK A01 T02270177  RH  073%=      5-min Rain = 0
KGO1 050659Z 30020KT 23/18 A301 RMK A01 T02280176  RH  073%=      5-min Rain = 0
KGO1 050700Z 30016KT 23/18 A301 RMK A01 T02280177  RH  073%=      5-min Rain = 0
KGO1 050701Z 30017G22KT 23/18 A301 RMK A01 T02280177  RH  073%=      5-min Rain = 0
KGO1 050702Z 29019KT 23/18 A301 RMK A01 T02280175  RH  072%=      5-min Rain = 0
KGO1 050703Z 30019KT 23/17 A301 RMK A01 T02280173  RH  071%=      5-min Rain = 0
KGO1 050704Z 29017KT 23/17 A3011 RMK A01 T02280174  RH  072%=      5-min Rain = 0
KGO1 050705Z 30021KT 23/17 A301 RMK A01 T02280173  RH  071%=      5-min Rain = 0
KGO1 050706Z 29018G23KT 23/17 A301 RMK A01 T02270171  RH  070%=      5-min Rain = 0
KGO1 050707Z 28017KT 23/17 A301 RMK A01 T02250172  RH  072%=      5-min Rain = 0
KGO1 050708Z 29017KT 22/17 A301 RMK A01 T02240171  RH  072%=      5-min Rain = 0
KGO1 050709Z 29016KT 22/17 A301 RMK A01 T02230170  RH  072%=      5-min Rain = 0
KGO1 050710Z 29018G24KT 22/17 A301 RMK A01 T02220170  RH  073%=      5-min Rain = 0
KGO1 050711Z 29019KT 22/17 A301 RMK A01 T02220169  RH  072%=      5-min Rain = 0
KGO1 050712Z 29020KT 22/17 A301 RMK A01 T02220168  RH  072%=      5-min Rain = 0
KGO1 050713Z 29018KT 22/17 A301 RMK A01 T02220167  RH  071%=      5-min Rain = 0
KGO1 050714Z 29019KT 22/17 A3011 RMK A01 T02220169  RH  072%=      5-min Rain = 0
KGO1 050715Z 29017KT 22/17 A3011 RMK A01 T02210168  RH  072%=      5-min Rain = 0
KGO1 050716Z 29015KT 22/17 A3011 RMK A01 T02210170  RH  073%=      5-min Rain = 0
KGO1 050717Z 29017KT 22/17 A3011 RMK A01 T02210169  RH  073%=      5-min Rain = 0
KGO1 050718Z 29016KT 22/17 A3011 RMK A01 T02210168  RH  072%=      5-min Rain = 0
KGO1 050719Z 29016KT 22/17 A3011 RMK A01 T02200168  RH  072%=      5-min Rain = 0
KGO1 050720Z 29018KT 22/17 A3011 RMK A01 T02200167  RH  072%=      5-min Rain = 0
KGO1 050721Z 29016KT 22/17 A3011 RMK A01 T02200165  RH  071%=      5-min Rain = 0
KGO1 050722Z 29015KT 22/17 A3011 RMK A01 T02200165  RH  071%=      5-min Rain = 0
KGO1 050723Z 30014KT 22/17 A3011 RMK A01 T02200165  RH  071%=      5-min Rain = 0
KGO1 050724Z 30016G21KT 22/17 A3011 RMK A01 T02200167  RH  072%=      5-min Rain = 0
KGO1 050725Z 30019KT 22/17 A3011 RMK A01 T02200165  RH  071%=      5-min Rain = 0
KGO1 050726Z 30019KT 22/16 A3011 RMK A01 T02200164  RH  070%=      5-min Rain = 0
KGO1 050727Z 30020KT 22/16 A3011 RMK A01 T02200164  RH  070%=      5-min Rain = 0
KGO1 050728Z 30019KT 22/17 A3011 RMK A01 T02190165  RH  071%=      5-min Rain = 0
KGO1 050729Z 30019KT 22/17 A3011 RMK A01 T02180167  RH  073%=      5-min Rain = 0
KGO1 050730Z 30019KT 22/17 A3011 RMK A01 T02150168  RH  074%=      5-min Rain = 0
KGO1 050731Z 30018KT 21/17 A3011 RMK A01 T02140167  RH  075%=      5-min Rain = 0
KGO1 050732Z 29019KT 21/17 A3011 RMK A01 T02130168  RH  075%=      5-min Rain = 0
KGO1 050733Z 29016KT 21/17 A3011 RMK A01 T02120170  RH  076%=      5-min Rain = 0
KGO1 050734Z 29019KT 21/17 A3011 RMK A01 T02100171  RH  078%=      5-min Rain = 0
KGO1 050735Z 29018KT 21/17 A3011 RMK A01 T02090171  RH  079%=      5-min Rain = 0
KGO1 050736Z 29020KT 21/17 A3011 RMK A01 T02070172  RH  080%=      5-min Rain = 0
KGO1 050737Z 29018KT 21/17 A3011 RMK A01 T02050173  RH  081%=      5-min Rain = 0.01
KGO1 050738Z 29019KT 20/17 A3011 RMK A01 T02040174  RH  083%=      5-min Rain = 0
KGO1 050739Z 29019KT 20/17 A3011 RMK A01 T02030173  RH  083%=      5-min Rain = 0.01
KGO1 050740Z 29016G21KT 20/17 A3011 RMK A01 T02020174  RH  084%=      5-min Rain = 0
KGO1 050741Z 29019KT 20/17 A3011 RMK A01 T02010174  RH  084%=      5-min Rain = 0
KGO1 050742Z 29017KT 20/17 A3011 RMK A01 T02010174  RH  085%=      5-min Rain = 0.01
KGO1 050743Z 29017KT 20/17 A3011 RMK A01 T02010174  RH  085%=      5-min Rain = 0
KGO1 050744Z 28015KT 20/18 A3011 RMK A01 T02000175  RH  086%=      5-min Rain = 0
KGO1 050745Z 28017KT 20/17 A3011 RMK A01 T01990174  RH  085%=      5-min Rain = 0.01
KGO1 050746Z 28015KT 20/17 A3011 RMK A01 T01990172  RH  084%=      5-min Rain = 0
KGO1 050747Z 28015KT 20/17 A3011 RMK A01 T01990173  RH  085%=      5-min Rain = 0
KGO1 050748Z 29013KT 20/17 A3011 RMK A01 T01980173  RH  085%=      5-min Rain = 0
KGO1 050749Z 29015KT 20/17 A3011 RMK A01 T01970173  RH  086%=      5-min Rain = 0
KGO1 050750Z 29015KT 20/17 A3011 RMK A01 T01960173  RH  087%=      5-min Rain = 0.01
KGO1 050751Z 29014KT 20/17 A3011 RMK A01 T01960173  RH  086%=      5-min Rain = 0.01
KGO1 050752Z 29011KT 20/17 A3011 RMK A01 T01960174  RH  087%=      5-min Rain = 0
KGO1 050753Z 30011KT 20/18 A301 RMK A01 T01960175  RH  088%=      5-min Rain = 0
KGO1 050754Z 30011KT 20/17 A301 RMK A01 T01950173  RH  087%=      5-min Rain = 0.01
KGO1 050755Z 29010KT 20/17 A301 RMK A01 T01950173  RH  087%=      5-min Rain = 0
KGO1 050756Z 29010KT 20/17 A301 RMK A01 T01950171  RH  086%=      5-min Rain = 0
KGO1 050757Z 29008KT 20/17 A301 RMK A01 T01950171  RH  086%=      5-min Rain = 0
KGO1 050758Z 29009KT 20/17 A301 RMK A01 T01950172  RH  086%=      5-min Rain = 0
KGO1 050759Z 29009KT 20/17 A301 RMK A01 T01950173  RH  087%=      5-min Rain = 0
KGO1 050800Z 30009KT 20/17 A301 RMK A01 T01950172  RH  087%=      5-min Rain = 0
KGO1 050801Z 30008KT 19/17 A301 RMK A01 T01940171  RH  087%=      5-min Rain = 0
KGO1 050802Z 29007KT 19/17 A301 RMK A01 T01940172  RH  087%=      5-min Rain = 0
KGO1 050803Z 29006KT 19/17 A301 RMK A01 T01940171  RH  086%=      5-min Rain = 0.01
KGO1 050804Z 30005KT 19/17 A301 RMK A01 T01940171  RH  087%=      5-min Rain = 0
KGO1 050805Z 31004KT 19/17 A301 RMK A01 T01940172  RH  087%=      5-min Rain = 0
KGO1 050806Z 30004KT 19/17 A301 RMK A01 T01930172  RH  088%=      5-min Rain = 0
KGO1 050807Z 32005KT 19/17 A301 RMK A01 T01930172  RH  088%=      5-min Rain = 0
KGO1 050808Z 32004KT 19/17 A301 RMK A01 T01930171  RH  087%=      5-min Rain = 0
KGO1 050809Z 32004KT 19/17 A301 RMK A01 T01930171  RH  087%=      5-min Rain = 0
KGO1 050810Z 32004KT 19/17 A301 RMK A01 T01920172  RH  088%=      5-min Rain = 0
KGO1 050811Z 33004KT 19/17 A301 RMK A01 T01920173  RH  089%=      5-min Rain = 0.01
KGO1 050812Z 31004KT 19/17 A301 RMK A01 T01910171  RH  088%=      5-min Rain = 0
KGO1 050813Z 31004KT 19/17 A301 RMK A01 T01920170  RH  087%=      5-min Rain = 0
KGO1 050814Z 31004KT 19/17 A301 RMK A01 T01920168  RH  086%=      5-min Rain = 0
KGO1 050815Z 30004KT 19/17 A301 RMK A01 T01930166  RH  084%=      5-min Rain = 0
KGO1 050816Z 29003KT 19/17 A301 RMK A01 T01940165  RH  083%=      5-min Rain = 0
KGO1 050817Z 28003KT 20/16 A301 RMK A01 T01950164  RH  082%=      5-min Rain = 0
KGO1 050818Z 27002KT 20/17 A301 RMK A01 T01960165  RH  082%=      5-min Rain = 0
KGO1 050819Z 26003KT 20/17 A301 RMK A01 T01960167  RH  083%=      5-min Rain = 0
KGO1 050820Z 25002KT 20/17 A301 RMK A01 T01960165  RH  082%=      5-min Rain = 0
KGO1 050821Z 26003KT 20/17 A301 RMK A01 T01970166  RH  082%=      5-min Rain = 0
KGO1 050822Z 27004KT 20/17 A301 RMK A01 T01980167  RH  083%=      5-min Rain = 0
KGO1 050823Z 25005KT 20/17 A301 RMK A01 T01980165  RH  081%=      5-min Rain = 0
KGO1 050824Z 25005KT 20/17 A301 RMK A01 T01990166  RH  082%=      5-min Rain = 0
KGO1 050825Z 24007KT 20/17 A301 RMK A01 T01990170  RH  083%=      5-min Rain = 0
KGO1 050826Z 25008KT 20/17 A301 RMK A01 T01990170  RH  084%=      5-min Rain = 0
KGO1 050827Z 26007KT 20/17 A301 RMK A01 T01990172  RH  084%=      5-min Rain = 0
KGO1 050828Z 27006KT 20/17 A301 RMK A01 T01980173  RH  086%=      5-min Rain = 0
KGO1 050829Z 28006KT 20/17 A301 RMK A01 T01970173  RH  086%=      5-min Rain = 0
KGO1 050830Z 28007KT 20/17 A3011 RMK A01 T01970174  RH  086%=      5-min Rain = 0
KGO1 050831Z 28008KT 20/17 A3011 RMK A01 T01960173  RH  086%=      5-min Rain = 0
KGO1 050832Z 27008KT 20/17 A3011 RMK A01 T01960174  RH  087%=      5-min Rain = 0
KGO1 050833Z 27010KT 20/17 A3011 RMK A01 T01960174  RH  087%=      5-min Rain = 0
KGO1 050834Z 27010KT 20/18 A3011 RMK A01 T01960176  RH  088%=      5-min Rain = 0
KGO1 050835Z 27009KT 20/17 A3011 RMK A01 T01960174  RH  087%=      5-min Rain = 0
KGO1 050836Z 28010KT 20/17 A3011 RMK A01 T01960174  RH  087%=      5-min Rain = 0
KGO1 050837Z 28009KT 20/18 A3011 RMK A01 T01970176  RH  088%=      5-min Rain = 0
KGO1 050838Z 28009KT 20/18 A3011 RMK A01 T01960176  RH  088%=      5-min Rain = 0
KGO1 050839Z 27008KT 20/18 A3011 RMK A01 T01960177  RH  089%=      5-min Rain = 0
KGO1 050840Z 27010KT 20/18 A3011 RMK A01 T01950176  RH  089%=      5-min Rain = 0
KGO1 050841Z 27010KT 20/17 A3011 RMK A01 T01950174  RH  088%=      5-min Rain = 0
KGO1 050842Z 27010KT 20/17 A3011 RMK A01 T01950174  RH  088%=      5-min Rain = 0
KGO1 050843Z 27009KT 20/17 A3011 RMK A01 T01950174  RH  088%=      5-min Rain = 0.01
KGO1 050844Z 27009KT 19/17 A3011 RMK A01 T01940173  RH  088%=      5-min Rain = 0
KGO1 050845Z 27008KT 19/17 A3011 RMK A01 T01940174  RH  088%=      5-min Rain = 0
KGO1 050846Z 27008KT 19/17 A3011 RMK A01 T01940174  RH  088%=      5-min Rain = 0
KGO1 050847Z 28008KT 19/18 A3011 RMK A01 T01940175  RH  089%=      5-min Rain = 0
KGO1 050848Z 28008KT 19/18 A3011 RMK A01 T01940175  RH  089%=      5-min Rain = 0
KGO1 050849Z 28008KT 19/17 A301 RMK A01 T01930174  RH  089%=      5-min Rain = 0
KGO1 050850Z 29008KT 19/18 A301 RMK A01 T01930175  RH  089%=      5-min Rain = 0
KGO1 050851Z 28009KT 19/18 A301 RMK A01 T01930175  RH  089%=      5-min Rain = 0
KGO1 050852Z 28008KT 19/18 A301 RMK A01 T01930175  RH  089%=      5-min Rain = 0
KGO1 050853Z 28009KT 19/17 A301 RMK A01 T01920174  RH  089%=      5-min Rain = 0
KGO1 050854Z 28008KT 19/17 A301 RMK A01 T01930174  RH  089%=      5-min Rain = 0
KGO1 050855Z 28008KT 19/17 A301 RMK A01 T01930172  RH  088%=      5-min Rain = 0
KGO1 050856Z 28007KT 19/17 A3009 RMK A01 T01940172  RH  087%=      5-min Rain = 0
KGO1 050857Z 28007KT 19/17 A3009 RMK A01 T01940172  RH  087%=      5-min Rain = 0
KGO1 050858Z 27008KT 19/17 A3009 RMK A01 T01940172  RH  087%=      5-min Rain = 0
KGO1 050859Z 27009KT 19/17 A3009 RMK A01 T01940172  RH  087%=      5-min Rain = 0
KGO1 050900Z 27010KT 20/17 A3009 RMK A01 T01950171  RH  086%=      5-min Rain = 0
KGO1 050901Z 27009KT 20/17 A3009 RMK A01 T01950170  RH  085%=      5-min Rain = 0
KGO1 050902Z 27009KT 20/17 A3009 RMK A01 T01960168  RH  084%=      5-min Rain = 0
KGO1 050903Z 27008KT 20/17 A3009 RMK A01 T01970168  RH  083%=      5-min Rain = 0
KGO1 050904Z 27007KT 20/17 A3009 RMK A01 T01980169  RH  083%=      5-min Rain = 0
KGO1 050905Z 27006KT 20/17 A3009 RMK A01 T01980169  RH  084%=      5-min Rain = 0
KGO1 050906Z 26006KT 20/17 A3009 RMK A01 T01980171  RH  084%=      5-min Rain = 0
KGO1 050907Z 26006KT 20/17 A3009 RMK A01 T01980172  RH  085%=      5-min Rain = 0
KGO1 050908Z 27005KT 20/17 A3009 RMK A01 T01980173  RH  086%=      5-min Rain = 0
KGO1 050909Z 27005KT 20/17 A3009 RMK A01 T01980173  RH  086%=      5-min Rain = 0
KGO1 050910Z 27006KT 20/17 A3009 RMK A01 T01970174  RH  086%=      5-min Rain = 0
KGO1 050911Z 26008KT 20/17 A3009 RMK A01 T01970174  RH  087%=      5-min Rain = 0
KGO1 050912Z 26009KT 20/18 A3009 RMK A01 T01970175  RH  087%=      5-min Rain = 0
KGO1 050913Z 27008KT 20/18 A3009 RMK A01 T01970175  RH  088%=      5-min Rain = 0
KGO1 050914Z 27008KT 20/18 A3009 RMK A01 T01960175  RH  088%=      5-min Rain = 0
KGO1 050915Z 27007KT 20/18 A3009 RMK A01 T01960175  RH  088%=      5-min Rain = 0
KGO1 050916Z 27006KT 20/18 A3008 RMK A01 T01950175  RH  088%=      5-min Rain = 0
KGO1 050917Z 28006KT 20/17 A3008 RMK A01 T01950174  RH  088%=      5-min Rain = 0
KGO1 050918Z 28006KT 20/18 A3008 RMK A01 T01950175  RH  088%=      5-min Rain = 0
KGO1 050919Z 27007KT 20/18 A3009 RMK A01 T01950176  RH  089%=      5-min Rain = 0
KGO1 050920Z 28008KT 20/18 A3009 RMK A01 T01950177  RH  089%=      5-min Rain = 0
KGO1 050921Z 28009KT 20/18 A3009 RMK A01 T01950176  RH  089%=      5-min Rain = 0
KGO1 050922Z 28008KT 20/18 A3009 RMK A01 T01950176  RH  088%=      5-min Rain = 0
KGO1 050923Z 28008KT 20/18 A3009 RMK A01 T01950176  RH  088%=      5-min Rain = 0
KGO1 050924Z 27009KT 20/17 A3009 RMK A01 T01950173  RH  087%=      5-min Rain = 0
KGO1 050925Z 27009KT 20/17 A3009 RMK A01 T01960172  RH  086%=      5-min Rain = 0
KGO1 050926Z 27008KT 20/17 A3009 RMK A01 T01970173  RH  086%=      5-min Rain = 0
KGO1 050927Z 28007KT 20/18 A3009 RMK A01 T01970175  RH  087%=      5-min Rain = 0
KGO1 050928Z 28007KT 20/18 A3009 RMK A01 T01970175  RH  087%=      5-min Rain = 0
KGO1 050929Z 28008KT 20/17 A3009 RMK A01 T01960173  RH  087%=      5-min Rain = 0
KGO1 050930Z 28009KT 20/17 A3009 RMK A01 T01960173  RH  086%=      5-min Rain = 0
KGO1 050931Z 28009KT 20/17 A3009 RMK A01 T01970171  RH  085%=      5-min Rain = 0
KGO1 050932Z 28008KT 20/17 A3009 RMK A01 T01980169  RH  084%=      5-min Rain = 0
KGO1 050933Z 29007KT 20/17 A3009 RMK A01 T01980170  RH  084%=      5-min Rain = 0
KGO1 050934Z 31005KT 20/17 A3009 RMK A01 T01980172  RH  085%=      5-min Rain = 0
KGO1 050935Z 34005KT 20/17 A3009 RMK A01 T01970174  RH  086%=      5-min Rain = 0
KGO1 050936Z 34008KT 20/18 A3009 RMK A01 T01960176  RH  088%=      5-min Rain = 0
KGO1 050937Z 34010KT 20/18 A3009 RMK A01 T01950176  RH  089%=      5-min Rain = 0
KGO1 050938Z 34008KT 19/18 A3009 RMK A01 T01940176  RH  089%=      5-min Rain = 0
KGO1 050939Z 35010KT 19/18 A3009 RMK A01 T01930176  RH  090%=      5-min Rain = 0
KGO1 050940Z 33010KT 19/18 A3009 RMK A01 T01930176  RH  090%=      5-min Rain = 0
KGO1 050941Z 33009KT 19/18 A3009 RMK A01 T01930175  RH  089%=      5-min Rain = 0
KGO1 050942Z 33008KT 19/18 A3009 RMK A01 T01930175  RH  089%=      5-min Rain = 0
KGO1 050943Z 33008KT 19/18 A3008 RMK A01 T01930175  RH  090%=      5-min Rain = 0
KGO1 050944Z 34008KT 19/18 A3008 RMK A01 T01920175  RH  090%=      5-min Rain = 0
KGO1 050945Z 33008KT 19/18 A3008 RMK A01 T01930175  RH  090%=      5-min Rain = 0
KGO1 050946Z 33007KT 19/17 A3008 RMK A01 T01930174  RH  089%=      5-min Rain = 0
KGO1 050947Z 33007KT 19/18 A3008 RMK A01 T01930175  RH  089%=      5-min Rain = 0
KGO1 050948Z 33006KT 19/18 A3008 RMK A01 T01920175  RH  089%=      5-min Rain = 0
KGO1 050949Z 32006KT 19/18 A3008 RMK A01 T01920175  RH  089%=      5-min Rain = 0
KGO1 050950Z 32005KT 19/18 A3008 RMK A01 T01930175  RH  090%=      5-min Rain = 0
KGO1 050951Z 33006KT 19/18 A3008 RMK A01 T01930175  RH  089%=      5-min Rain = 0
KGO1 050952Z 33006KT 19/17 A3008 RMK A01 T01930174  RH  089%=      5-min Rain = 0
KGO1 050953Z 34006KT 19/17 A3008 RMK A01 T01940174  RH  088%=      5-min Rain = 0
KGO1 050954Z 34005KT 19/17 A3008 RMK A01 T01930173  RH  088%=      5-min Rain = 0
KGO1 050955Z 34005KT 19/17 A3007 RMK A01 T01940174  RH  088%=      5-min Rain = 0
KGO1 050956Z 35006KT 19/17 A3007 RMK A01 T01940173  RH  088%=      5-min Rain = 0
KGO1 050957Z 35005KT 19/17 A3007 RMK A01 T01940172  RH  087%=      5-min Rain = 0
KGO1 050958Z 35004KT 19/17 A3007 RMK A01 T01940171  RH  087%=      5-min Rain = 0
KGO1 050959Z 34004KT 19/17 A3007 RMK A01 T01940173  RH  087%=      5-min Rain = 0
KGO1 051000Z 34004KT 19/17 A3007 RMK A01 T01940173  RH  088%=      5-min Rain = 0
KGO1 051001Z 34004KT 19/17 A3007 RMK A01 T01930172  RH  087%=      5-min Rain = 0
KGO1 051002Z 33004KT 19/17 A3007 RMK A01 T01940172  RH  087%=      5-min Rain = 0
KGO1 051003Z 34004KT 19/17 A3007 RMK A01 T01940172  RH  088%=      5-min Rain = 0
KGO1 051004Z 34004KT 19/17 A3007 RMK A01 T01940173  RH  088%=      5-min Rain = 0
KGO1 051005Z 33003KT 19/17 A3006 RMK A01 T01940173  RH  088%=      5-min Rain = 0
KGO1 051006Z 33002KT 19/17 A3006 RMK A01 T01930174  RH  088%=      5-min Rain = 0
KGO1 051007Z 33002KT 19/17 A3006 RMK A01 T01930174  RH  089%=      5-min Rain = 0
KGO1 051008Z 31001KT 19/17 A3006 RMK A01 T01920174  RH  089%=      5-min Rain = 0
KGO1 051009Z 29002KT 19/17 A3006 RMK A01 T01920174  RH  089%=      5-min Rain = 0
KGO1 051010Z 28001KT 19/17 A3006 RMK A01 T01920174  RH  090%=      5-min Rain = 0
KGO1 051011Z 27002KT 19/17 A3006 RMK A01 T01910174  RH  090%=      5-min Rain = 0
KGO1 051012Z 25003KT 19/18 A3006 RMK A01 T01910175  RH  090%=      5-min Rain = 0
KGO1 051013Z 27004KT 19/17 A3006 RMK A01 T01910174  RH  090%=      5-min Rain = 0
KGO1 051014Z 26006KT 19/17 A3006 RMK A01 T01920172  RH  088%=      5-min Rain = 0
KGO1 051015Z 26005KT 19/17 A3006 RMK A01 T01920172  RH  088%=      5-min Rain = 0
KGO1 051016Z 27005KT 19/17 A3005 RMK A01 T01930171  RH  087%=      5-min Rain = 0
KGO1 051017Z 26005KT 19/17 A3005 RMK A01 T01930172  RH  088%=      5-min Rain = 0
KGO1 051018Z 26005KT 19/17 A3005 RMK A01 T01930172  RH  088%=      5-min Rain = 0
KGO1 051019Z 26005KT 19/17 A3005 RMK A01 T01930172  RH  088%=      5-min Rain = 0
KGO1 051020Z 25006KT 19/17 A3005 RMK A01 T01930173  RH  088%=      5-min Rain = 0
KGO1 051021Z 26007KT 19/17 A3005 RMK A01 T01930173  RH  088%=      5-min Rain = 0
KGO1 051022Z 26007KT 19/17 A3005 RMK A01 T01930173  RH  088%=      5-min Rain = 0
KGO1 051023Z 26008KT 19/17 A3004 RMK A01 T01930173  RH  088%=      5-min Rain = 0
KGO1 051024Z 26008KT 19/17 A3004 RMK A01 T01930172  RH  088%=      5-min Rain = 0
KGO1 051025Z 26007KT 19/17 A3004 RMK A01 T01930171  RH  087%=      5-min Rain = 0
KGO1 051026Z 26007KT 19/17 A3004 RMK A01 T01930171  RH  087%=      5-min Rain = 0
KGO1 051027Z 27007KT 19/17 A3004 RMK A01 T01930171  RH  087%=      5-min Rain = 0
KGO1 051028Z 27007KT 19/17 A3004 RMK A01 T01930172  RH  087%=      5-min Rain = 0
KGO1 051029Z 27007KT 19/17 A3004 RMK A01 T01930172  RH  088%=      5-min Rain = 0
KGO1 051030Z 27006KT 19/17 A3004 RMK A01 T01920172  RH  088%=      5-min Rain = 0
KGO1 051031Z 27007KT 19/17 A3004 RMK A01 T01920172  RH  088%=      5-min Rain = 0
KGO1 051032Z 26006KT 19/17 A3004 RMK A01 T01920172  RH  088%=      5-min Rain = 0
KGO1 051033Z 26006KT 19/17 A3004 RMK A01 T01920173  RH  089%=      5-min Rain = 0
KGO1 051034Z 26006KT 19/17 A3004 RMK A01 T01910172  RH  089%=      5-min Rain = 0
KGO1 051035Z 27006KT 19/17 A3003 RMK A01 T01910172  RH  088%=      5-min Rain = 0
KGO1 051036Z 27005KT 19/17 A3003 RMK A01 T01910171  RH  088%=      5-min Rain = 0
KGO1 051037Z 28006KT 19/17 A3003 RMK A01 T01910171  RH  088%=      5-min Rain = 0
KGO1 051038Z 28006KT 19/17 A3003 RMK A01 T01910171  RH  088%=      5-min Rain = 0
KGO1 051039Z 28006KT 19/17 A3003 RMK A01 T01910171  RH  089%=      5-min Rain = 0
KGO1 051040Z 28006KT 19/17 A3003 RMK A01 T01900171  RH  088%=      5-min Rain = 0
KGO1 051041Z 28006KT 19/17 A3003 RMK A01 T01900171  RH  089%=      5-min Rain = 0
KGO1 051042Z 28007KT 19/17 A3003 RMK A01 T01900171  RH  088%=      5-min Rain = 0
KGO1 051043Z 29007KT 19/17 A3003 RMK A01 T01900171  RH  089%=      5-min Rain = 0
KGO1 051044Z 29007KT 19/17 A3002 RMK A01 T01890170  RH  089%=      5-min Rain = 0
KGO1 051045Z 29007KT 19/17 A3002 RMK A01 T01890171  RH  089%=      5-min Rain = 0
KGO1 051046Z 29007KT 19/17 A3002 RMK A01 T01890170  RH  089%=      5-min Rain = 0
KGO1 051047Z 29007KT 19/17 A3002 RMK A01 T01890170  RH  089%=      5-min Rain = 0
KGO1 051048Z 29007KT 19/17 A3002 RMK A01 T01880170  RH  089%=      5-min Rain = 0
KGO1 051049Z 30007KT 19/17 A3002 RMK A01 T01890170  RH  089%=      5-min Rain = 0
KGO1 051050Z 30007KT 19/17 A3002 RMK A01 T01880170  RH  089%=      5-min Rain = 0
KGO1 051051Z 30006KT 19/17 A3002 RMK A01 T01880170  RH  089%=      5-min Rain = 0
KGO1 051052Z 30006KT 19/17 A3002 RMK A01 T01880170  RH  089%=      5-min Rain = 0
KGO1 051053Z 30007KT 19/17 A3002 RMK A01 T01880170  RH  089%=      5-min Rain = 0
KGO1 051054Z 30006KT 19/17 A3002 RMK A01 T01880170  RH  089%=      5-min Rain = 0
KGO1 051055Z 29005KT 19/17 A3002 RMK A01 T01880170  RH  089%=      5-min Rain = 0
KGO1 051056Z 29006KT 19/17 A3002 RMK A01 T01870171  RH  090%=      5-min Rain = 0
KGO1 051057Z 30007KT 19/17 A3002 RMK A01 T01870170  RH  090%=      5-min Rain = 0
KGO1 051058Z 30006KT 19/17 A3002 RMK A01 T01870171  RH  090%=      5-min Rain = 0
KGO1 051059Z 30007KT 19/17 A3002 RMK A01 T01870170  RH  090%=      5-min Rain = 0
KGO1 051100Z 30006KT 19/17 A3002 RMK A01 T01870170  RH  090%=      5-min Rain = 0
KGO1 051101Z 31005KT 19/17 A3002 RMK A01 T01870171  RH  090%=      5-min Rain = 0
KGO1 051102Z 30005KT 19/17 A3002 RMK A01 T01870171  RH  090%=      5-min Rain = 0
KGO1 051103Z 30005KT 19/17 A3002 RMK A01 T01860170  RH  090%=      5-min Rain = 0
KGO1 051104Z 30005KT 19/17 A3002 RMK A01 T01860170  RH  090%=      5-min Rain = 0
KGO1 051105Z 30006KT 19/17 A3002 RMK A01 T01860170  RH  090%=      5-min Rain = 0
KGO1 051106Z 30006KT 19/17 A3002 RMK A01 T01860170  RH  090%=      5-min Rain = 0
KGO1 051107Z 30006KT 19/17 A3002 RMK A01 T01870170  RH  090%=      5-min Rain = 0
KGO1 051108Z 30007KT 19/17 A3002 RMK A01 T01870170  RH  090%=      5-min Rain = 0
KGO1 051109Z 30006KT 19/17 A3002 RMK A01 T01870170  RH  089%=      5-min Rain = 0
KGO1 051110Z 31007KT 19/17 A3002 RMK A01 T01880170  RH  089%=      5-min Rain = 0
KGO1 051111Z 31006KT 19/17 A3002 RMK A01 T01880170  RH  090%=      5-min Rain = 0
KGO1 051112Z 31007KT 19/17 A3002 RMK A01 T01880171  RH  090%=      5-min Rain = 0
KGO1 051113Z 31006KT 19/17 A3002 RMK A01 T01880171  RH  090%=      5-min Rain = 0
KGO1 051114Z 31006KT 19/17 A3002 RMK A01 T01890172  RH  090%=      5-min Rain = 0
KGO1 051115Z 30006KT 19/17 A3002 RMK A01 T01890172  RH  090%=      5-min Rain = 0
KGO1 051116Z 30006KT 19/17 A3002 RMK A01 T01890172  RH  090%=      5-min Rain = 0
KGO1 051117Z 31006KT 19/17 A3002 RMK A01 T01890172  RH  090%=      5-min Rain = 0
KGO1 051118Z 31005KT 19/17 A3002 RMK A01 T01890173  RH  091%=      5-min Rain = 0
KGO1 051119Z 31006KT 19/17 A3002 RMK A01 T01890174  RH  091%=      5-min Rain = 0
KGO1 051120Z 32006KT 19/17 A3002 RMK A01 T01890174  RH  091%=      5-min Rain = 0
KGO1 051121Z 32006KT 19/17 A3002 RMK A01 T01880174  RH  091%=      5-min Rain = 0
KGO1 051122Z 32005KT 19/17 A3002 RMK A01 T01880174  RH  092%=      5-min Rain = 0
KGO1 051123Z 32006KT 19/18 A3002 RMK A01 T01880175  RH  092%=      5-min Rain = 0
KGO1 051124Z 32006KT 19/18 A3002 RMK A01 T01890175  RH  092%=      5-min Rain = 0
KGO1 051125Z 32005KT 19/18 A3002 RMK A01 T01880175  RH  092%=      5-min Rain = 0
KGO1 051126Z 31005KT 19/18 A3002 RMK A01 T01880175  RH  092%=      5-min Rain = 0
KGO1 051127Z 31004KT 19/18 A3002 RMK A01 T01880175  RH  092%=      5-min Rain = 0
KGO1 051128Z 30005KT 19/18 A3002 RMK A01 T01880175  RH  092%=      5-min Rain = 0
KGO1 051129Z 30005KT 19/17 A3002 RMK A01 T01880174  RH  092%=      5-min Rain = 0
KGO1 051130Z 30006KT 19/17 A3002 RMK A01 T01890174  RH  091%=      5-min Rain = 0
KGO1 051131Z 30006KT 19/17 A3002 RMK A01 T01890173  RH  091%=      5-min Rain = 0
KGO1 051132Z 30005KT 19/17 A3002 RMK A01 T01890174  RH  091%=      5-min Rain = 0
KGO1 051133Z 29005KT 19/17 A3002 RMK A01 T01900174  RH  091%=      5-min Rain = 0
KGO1 051134Z 30005KT 19/17 A3002 RMK A01 T01890173  RH  090%=      5-min Rain = 0
KGO1 051135Z 29005KT 19/17 A3002 RMK A01 T01900172  RH  089%=      5-min Rain = 0
KGO1 051136Z 29005KT 19/17 A3002 RMK A01 T01910173  RH  090%=      5-min Rain = 0
KGO1 051137Z 29006KT 19/17 A3002 RMK A01 T01910173  RH  090%=      5-min Rain = 0
KGO1 051138Z 28006KT 19/17 A3002 RMK A01 T01910173  RH  089%=      5-min Rain = 0
KGO1 051139Z 29005KT 19/17 A3002 RMK A01 T01910172  RH  089%=      5-min Rain = 0
KGO1 051140Z 29004KT 19/17 A3002 RMK A01 T01910173  RH  089%=      5-min Rain = 0
KGO1 051141Z 28005KT 19/17 A3002 RMK A01 T01910172  RH  089%=      5-min Rain = 0
KGO1 051142Z 28005KT 19/17 A3002 RMK A01 T01910172  RH  088%=      5-min Rain = 0
KGO1 051143Z 28005KT 19/17 A3002 RMK A01 T01920171  RH  088%=      5-min Rain = 0
KGO1 051144Z 28005KT 19/17 A3002 RMK A01 T01920171  RH  088%=      5-min Rain = 0
KGO1 051145Z 27005KT 19/17 A3002 RMK A01 T01920171  RH  088%=      5-min Rain = 0
KGO1 051146Z 27005KT 19/17 A3003 RMK A01 T01920170  RH  087%=      5-min Rain = 0
KGO1 051147Z 28005KT 19/17 A3003 RMK A01 T01920170  RH  087%=      5-min Rain = 0
KGO1 051148Z 28005KT 19/17 A3003 RMK A01 T01920170  RH  087%=      5-min Rain = 0
KGO1 051149Z 31005KT 19/17 A3003 RMK A01 T01930171  RH  087%=      5-min Rain = 0
KGO1 051150Z 33005KT 19/17 A3003 RMK A01 T01930171  RH  087%=      5-min Rain = 0
KGO1 051151Z 35006KT 19/17 A3003 RMK A01 T01920171  RH  088%=      5-min Rain = 0
KGO1 051152Z 01008KT 19/17 A3003 RMK A01 T01920172  RH  088%=      5-min Rain = 0
KGO1 051153Z 01008KT 19/17 A3003 RMK A01 T01910172  RH  089%=      5-min Rain = 0
KGO1 051154Z 00008KT 19/17 A3004 RMK A01 T01910173  RH  089%=      5-min Rain = 0
KGO1 051155Z 00008KT 19/17 A3004 RMK A01 T01910172  RH  089%=      5-min Rain = 0
KGO1 051156Z 00006KT 19/17 A3004 RMK A01 T01910171  RH  088%=      5-min Rain = 0
KGO1 051157Z 00006KT 19/17 A3004 RMK A01 T01910171  RH  088%=      5-min Rain = 0
KGO1 051158Z 00006KT 19/17 A3004 RMK A01 T01920170  RH  087%=      5-min Rain = 0
KGO1 051159Z 35006KT 19/17 A3004 RMK A01 T01920171  RH  088%=      5-min Rain = 0
KGO1 051200Z 35006KT 19/17 A3004 RMK A01 T01920171  RH  088%=      5-min Rain = 0
KGO1 051201Z 36005KT 19/17 A3004 RMK A01 T01920172  RH  088%=      5-min Rain = 0
KGO1 051202Z 00006KT 19/17 A3004 RMK A01 T01920173  RH  088%=      5-min Rain = 0
KGO1 051203Z 01006KT 19/17 A3004 RMK A01 T01920173  RH  088%=      5-min Rain = 0
KGO1 051204Z 02005KT 19/17 A3004 RMK A01 T01920173  RH  089%=      5-min Rain = 0
KGO1 051205Z 02006KT 19/17 A3004 RMK A01 T01920174  RH  089%=      5-min Rain = 0
KGO1 051206Z 03005KT 19/17 A3004 RMK A01 T01920174  RH  090%=      5-min Rain = 0
KGO1 051207Z 03004KT 19/18 A3004 RMK A01 T01920175  RH  090%=      5-min Rain = 0
KGO1 051208Z 03004KT 19/18 A3004 RMK A01 T01910175  RH  090%=      5-min Rain = 0
KGO1 051209Z 03004KT 19/18 A3004 RMK A01 T01910175  RH  090%=      5-min Rain = 0
KGO1 051210Z 03004KT 19/18 A3004 RMK A01 T01910176  RH  091%=      5-min Rain = 0
KGO1 051211Z 03004KT 19/18 A3004 RMK A01 T01910175  RH  090%=      5-min Rain = 0
KGO1 051212Z 03004KT 19/18 A3004 RMK A01 T01910175  RH  091%=      5-min Rain = 0
KGO1 051213Z 02004KT 19/18 A3004 RMK A01 T01910175  RH  090%=      5-min Rain = 0
KGO1 051214Z 00003KT 19/17 A3004 RMK A01 T01910173  RH  089%=      5-min Rain = 0
KGO1 051215Z 01003KT 19/17 A3004 RMK A01 T01910173  RH  089%=      5-min Rain = 0
KGO1 051216Z 03004KT 19/17 A3005 RMK A01 T01920173  RH  089%=      5-min Rain = 0
KGO1 051217Z 03005KT 19/17 A3005 RMK A01 T01920174  RH  090%=      5-min Rain = 0
KGO1 051218Z 04006KT 19/17 A3005 RMK A01 T01910174  RH  090%=      5-min Rain = 0
KGO1 051219Z 04005KT 19/18 A3005 RMK A01 T01910175  RH  090%=      5-min Rain = 0
KGO1 051220Z 04006KT 19/18 A3005 RMK A01 T01910175  RH  091%=      5-min Rain = 0
KGO1 051221Z 04006KT 19/18 A3005 RMK A01 T01910176  RH  091%=      5-min Rain = 0
KGO1 051222Z 04006KT 19/18 A3005 RMK A01 T01920177  RH  091%=      5-min Rain = 0
KGO1 051223Z 04007KT 19/18 A3005 RMK A01 T01920177  RH  091%=      5-min Rain = 0
KGO1 051224Z 04006KT 19/18 A3005 RMK A01 T01930177  RH  090%=      5-min Rain = 0
KGO1 051225Z 04005KT 19/18 A3005 RMK A01 T01940178  RH  091%=      5-min Rain = 0
KGO1 051226Z 04006KT 20/18 A3006 RMK A01 T01950178  RH  090%=      5-min Rain = 0
KGO1 051227Z 04005KT 20/18 A3006 RMK A01 T01950178  RH  090%=      5-min Rain = 0
KGO1 051228Z 04006KT 20/18 A3006 RMK A01 T01950178  RH  090%=      5-min Rain = 0
KGO1 051229Z 04006KT 20/18 A3006 RMK A01 T01960177  RH  089%=      5-min Rain = 0
KGO1 051230Z 04006KT 20/18 A3006 RMK A01 T01960178  RH  089%=      5-min Rain = 0
KGO1 051231Z 04006KT 20/18 A3006 RMK A01 T01960178  RH  090%=      5-min Rain = 0
KGO1 051232Z 03006KT 20/18 A3006 RMK A01 T01950178  RH  090%=      5-min Rain = 0
KGO1 051233Z 04005KT 19/18 A3006 RMK A01 T01940178  RH  090%=      5-min Rain = 0
KGO1 051234Z 04005KT 19/18 A3006 RMK A01 T01940178  RH  090%=      5-min Rain = 0
KGO1 051235Z 03005KT 19/18 A3006 RMK A01 T01940178  RH  091%=      5-min Rain = 0
KGO1 051236Z 04005KT 19/18 A3006 RMK A01 T01930178  RH  091%=      5-min Rain = 0
KGO1 051237Z 03005KT 19/18 A3006 RMK A01 T01940178  RH  090%=      5-min Rain = 0
KGO1 051238Z 03005KT 20/18 A3006 RMK A01 T01950178  RH  090%=      5-min Rain = 0
KGO1 051239Z 03006KT 20/18 A3006 RMK A01 T01950178  RH  090%=      5-min Rain = 0
KGO1 051240Z 02005KT 20/18 A3006 RMK A01 T01960179  RH  090%=      5-min Rain = 0
KGO1 051241Z 02006KT 20/18 A3006 RMK A01 T01970180  RH  090%=      5-min Rain = 0
KGO1 051242Z 01006KT 20/18 A3006 RMK A01 T01980179  RH  089%=      5-min Rain = 0
KGO1 051243Z 01006KT 20/18 A3006 RMK A01 T01980179  RH  088%=      5-min Rain = 0
KGO1 051244Z 01006KT 20/18 A3006 RMK A01 T01980179  RH  089%=      5-min Rain = 0
KGO1 051245Z 01006KT 20/18 A3006 RMK A01 T01980179  RH  089%=      5-min Rain = 0
KGO1 051246Z 01007KT 20/18 A3006 RMK A01 T01980179  RH  089%=      5-min Rain = 0
KGO1 051247Z 01006KT 20/18 A3006 RMK A01 T01980178  RH  088%=      5-min Rain = 0
KGO1 051248Z 01006KT 20/18 A3006 RMK A01 T01960179  RH  089%=      5-min Rain = 0
KGO1 051249Z 02005KT 20/18 A3006 RMK A01 T01950178  RH  090%=      5-min Rain = 0
KGO1 051250Z 02005KT 20/18 A3006 RMK A01 T01950178  RH  090%=      5-min Rain = 0
KGO1 051251Z 02006KT 19/18 A3006 RMK A01 T01940178  RH  090%=      5-min Rain = 0
KGO1 051252Z 02005KT 19/18 A3006 RMK A01 T01940178  RH  090%=      5-min Rain = 0
KGO1 051253Z 02006KT 19/18 A3006 RMK A01 T01930178  RH  091%=      5-min Rain = 0
KGO1 051254Z 02005KT 19/18 A3006 RMK A01 T01930177  RH  091%=      5-min Rain = 0
KGO1 051255Z 02005KT 19/18 A3006 RMK A01 T01930178  RH  091%=      5-min Rain = 0
KGO1 051256Z 02005KT 19/18 A3006 RMK A01 T01930178  RH  091%=      5-min Rain = 0
KGO1 051257Z 03004KT 19/18 A3006 RMK A01 T01930178  RH  091%=      5-min Rain = 0
KGO1 051258Z 03004KT 19/18 A3006 RMK A01 T01930178  RH  091%=      5-min Rain = 0
KGO1 051259Z 03004KT 19/18 A3006 RMK A01 T01930178  RH  091%=      5-min Rain = 0
KGO1 051300Z 03005KT 19/18 A3006 RMK A01 T01930177  RH  090%=      5-min Rain = 0
KGO1 051301Z 03005KT 19/18 A3006 RMK A01 T01930178  RH  091%=      5-min Rain = 0
KGO1 051302Z 03004KT 19/18 A3006 RMK A01 T01940179  RH  091%=      5-min Rain = 0
KGO1 051303Z 03005KT 19/18 A3007 RMK A01 T01940179  RH  091%=      5-min Rain = 0
KGO1 051304Z 02004KT 19/18 A3007 RMK A01 T01930179  RH  091%=      5-min Rain = 0
KGO1 051305Z 02005KT 19/18 A3007 RMK A01 T01930179  RH  091%=      5-min Rain = 0
KGO1 051306Z 03004KT 19/18 A3007 RMK A01 T01930179  RH  091%=      5-min Rain = 0
KGO1 051307Z 03003KT 19/18 A3007 RMK A01 T01940180  RH  092%=      5-min Rain = 0
KGO1 051308Z 03004KT 19/18 A3007 RMK A01 T01930180  RH  092%=      5-min Rain = 0
KGO1 051309Z 03003KT 19/18 A3007 RMK A01 T01940180  RH  092%=      5-min Rain = 0
KGO1 051310Z 04003KT 19/18 A3007 RMK A01 T01940180  RH  092%=      5-min Rain = 0
KGO1 051311Z 04004KT 19/18 A3007 RMK A01 T01940180  RH  092%=      5-min Rain = 0
KGO1 051312Z 04004KT 19/18 A3007 RMK A01 T01940179  RH  091%=      5-min Rain = 0
KGO1 051313Z 04003KT 20/18 A3007 RMK A01 T01950180  RH  091%=      5-min Rain = 0
KGO1 051314Z 04004KT 20/18 A3007 RMK A01 T01960182  RH  092%=      5-min Rain = 0
KGO1 051315Z 04004KT 20/18 A3007 RMK A01 T01960179  RH  090%=      5-min Rain = 0
KGO1 051316Z 04004KT 20/18 A3007 RMK A01 T01960179  RH  090%=      5-min Rain = 0
KGO1 051317Z 04004KT 20/18 A3007 RMK A01 T01960180  RH  090%=      5-min Rain = 0
KGO1 051318Z 03004KT 20/18 A3007 RMK A01 T01960180  RH  090%=      5-min Rain = 0
KGO1 051319Z 02004KT 20/18 A3007 RMK A01 T01970181  RH  091%=      5-min Rain = 0
KGO1 051320Z 02005KT 20/18 A3007 RMK A01 T01970180  RH  090%=      5-min Rain = 0
KGO1 051321Z 02005KT 20/18 A3007 RMK A01 T01970178  RH  089%=      5-min Rain = 0
KGO1 051322Z 01004KT 20/18 A3007 RMK A01 T01980178  RH  089%=      5-min Rain = 0
KGO1 051323Z 01004KT 20/18 A3007 RMK A01 T01980180  RH  090%=      5-min Rain = 0
KGO1 051324Z 01004KT 20/18 A3007 RMK A01 T01970179  RH  089%=      5-min Rain = 0
KGO1 051325Z 00005KT 20/18 A3007 RMK A01 T01980179  RH  089%=      5-min Rain = 0
KGO1 051326Z 00005KT 20/18 A3007 RMK A01 T01980179  RH  089%=      5-min Rain = 0
KGO1 051327Z 35005KT 20/18 A3007 RMK A01 T01980179  RH  089%=      5-min Rain = 0
KGO1 051328Z 35006KT 20/18 A3007 RMK A01 T01980179  RH  089%=      5-min Rain = 0
KGO1 051329Z 35005KT 20/18 A3007 RMK A01 T01980179  RH  089%=      5-min Rain = 0
KGO1 051330Z 36005KT 20/18 A3007 RMK A01 T01990180  RH  089%=      5-min Rain = 0
KGO1 051331Z 00005KT 20/18 A3007 RMK A01 T01980179  RH  088%=      5-min Rain = 0
KGO1 051332Z 00004KT 20/18 A3007 RMK A01 T01990180  RH  089%=      5-min Rain = 0
KGO1 051333Z 01004KT 20/18 A3007 RMK A01 T01990180  RH  089%=      5-min Rain = 0
KGO1 051334Z 01005KT 20/18 A3007 RMK A01 T01990181  RH  090%=      5-min Rain = 0
KGO1 051335Z 01005KT 20/18 A3007 RMK A01 T01990179  RH  088%=      5-min Rain = 0
KGO1 051336Z 01005KT 20/18 A3007 RMK A01 T01990178  RH  088%=      5-min Rain = 0
KGO1 051337Z 02005KT 20/18 A3007 RMK A01 T02000181  RH  089%=      5-min Rain = 0
KGO1 051338Z 02005KT 20/18 A3007 RMK A01 T01990180  RH  088%=      5-min Rain = 0
KGO1 051339Z 02006KT 20/18 A3007 RMK A01 T02000181  RH  089%=      5-min Rain = 0
KGO1 051340Z 02006KT 20/18 A3007 RMK A01 T02000179  RH  088%=      5-min Rain = 0
KGO1 051341Z 02006KT 20/18 A3007 RMK A01 T01990180  RH  088%=      5-min Rain = 0
KGO1 051342Z 01006KT 20/18 A3007 RMK A01 T01990180  RH  088%=      5-min Rain = 0
KGO1 051343Z 02006KT 20/18 A3007 RMK A01 T01990181  RH  089%=      5-min Rain = 0
KGO1 051344Z 01006KT 20/18 A3007 RMK A01 T01990182  RH  089%=      5-min Rain = 0
KGO1 051345Z 01006KT 20/18 A3007 RMK A01 T01990181  RH  089%=      5-min Rain = 0
KGO1 051346Z 01006KT 20/18 A3007 RMK A01 T02000181  RH  089%=      5-min Rain = 0
KGO1 051347Z 00006KT 20/18 A3007 RMK A01 T02000181  RH  089%=      5-min Rain = 0
KGO1 051348Z 00007KT 20/18 A3007 RMK A01 T02000180  RH  088%=      5-min Rain = 0
KGO1 051349Z 36006KT 20/18 A3007 RMK A01 T02000180  RH  088%=      5-min Rain = 0
KGO1 051350Z 36005KT 20/18 A3007 RMK A01 T02000181  RH  089%=      5-min Rain = 0
KGO1 051351Z 00006KT 20/18 A3007 RMK A01 T02000182  RH  089%=      5-min Rain = 0
KGO1 051352Z 36006KT 20/18 A3007 RMK A01 T02010180  RH  088%=      5-min Rain = 0
KGO1 051353Z 36007KT 20/18 A3007 RMK A01 T02010180  RH  088%=      5-min Rain = 0
KGO1 051354Z 00006KT 20/18 A3007 RMK A01 T02010179  RH  087%=      5-min Rain = 0
KGO1 051355Z 00005KT 20/18 A3007 RMK A01 T02010180  RH  087%=      5-min Rain = 0
KGO1 051356Z 00005KT 20/18 A3007 RMK A01 T02020181  RH  088%=      5-min Rain = 0
KGO1 051357Z 00005KT 20/18 A3007 RMK A01 T02020181  RH  088%=      5-min Rain = 0
KGO1 051358Z 00005KT 20/18 A3007 RMK A01 T02020179  RH  087%=      5-min Rain = 0
KGO1 051359Z 01004KT 20/18 A3007 RMK A01 T02020180  RH  087%=      5-min Rain = 0
KGO1 051400Z 01003KT 20/18 A3007 RMK A01 T02020181  RH  088%=      5-min Rain = 0
KGO1 051401Z 01004KT 20/18 A3007 RMK A01 T02030182  RH  088%=      5-min Rain = 0
KGO1 051402Z 02004KT 20/18 A3008 RMK A01 T02030182  RH  088%=      5-min Rain = 0
KGO1 051403Z 02004KT 20/18 A3008 RMK A01 T02030181  RH  087%=      5-min Rain = 0
KGO1 051404Z 02005KT 20/18 A3008 RMK A01 T02040182  RH  087%=      5-min Rain = 0
KGO1 051405Z 02004KT 20/18 A3008 RMK A01 T02040181  RH  086%=      5-min Rain = 0
KGO1 051406Z 03004KT 20/18 A3008 RMK A01 T02040181  RH  087%=      5-min Rain = 0
KGO1 051407Z 03004KT 20/18 A3008 RMK A01 T02040182  RH  087%=      5-min Rain = 0
KGO1 051408Z 03004KT 21/18 A3008 RMK A01 T02050182  RH  087%=      5-min Rain = 0
KGO1 051409Z 03004KT 21/18 A3008 RMK A01 T02050183  RH  087%=      5-min Rain = 0
KGO1 051410Z 04006KT 21/18 A3008 RMK A01 T02060184  RH  087%=      5-min Rain = 0
KGO1 051411Z 03005KT 21/18 A3008 RMK A01 T02060181  RH  085%=      5-min Rain = 0
KGO1 051412Z 03005KT 21/18 A3008 RMK A01 T02070183  RH  086%=      5-min Rain = 0
KGO1 051413Z 04005KT 21/18 A3008 RMK A01 T02070183  RH  086%=      5-min Rain = 0
KGO1 051414Z 03005KT 21/18 A3008 RMK A01 T02070184  RH  087%=      5-min Rain = 0
KGO1 051415Z 03006KT 21/18 A3008 RMK A01 T02080183  RH  086%=      5-min Rain = 0
KGO1 051416Z 03007KT 21/18 A3008 RMK A01 T02080182  RH  085%=      5-min Rain = 0
KGO1 051417Z 02006KT 21/18 A3008 RMK A01 T02080183  RH  086%=      5-min Rain = 0
KGO1 051418Z 03007KT 21/18 A3008 RMK A01 T02080182  RH  085%=      5-min Rain = 0
KGO1 051419Z 02007KT 21/18 A3009 RMK A01 T02080181  RH  084%=      5-min Rain = 0
KGO1 051420Z 03008KT 21/18 A3009 RMK A01 T02080180  RH  084%=      5-min Rain = 0
KGO1 051421Z 03007KT 21/18 A3009 RMK A01 T02090182  RH  085%=      5-min Rain = 0
KGO1 051422Z 03006KT 21/18 A3009 RMK A01 T02090183  RH  085%=      5-min Rain = 0
KGO1 051423Z 03006KT 21/19 A3009 RMK A01 T02090185  RH  086%=      5-min Rain = 0
KGO1 051424Z 04006KT 21/18 A3009 RMK A01 T02100184  RH  085%=      5-min Rain = 0
KGO1 051425Z 04008KT 21/18 A3009 RMK A01 T02100184  RH  085%=      5-min Rain = 0
KGO1 051426Z 03008KT 21/18 A3009 RMK A01 T02110183  RH  084%=      5-min Rain = 0
KGO1 051427Z 03007KT 21/18 A3009 RMK A01 T02110183  RH  084%=      5-min Rain = 0
KGO1 051428Z 04007KT 21/19 A3009 RMK A01 T02110185  RH  085%=      5-min Rain = 0
KGO1 051429Z 04009KT 21/19 A3009 RMK A01 T02120186  RH  085%=      5-min Rain = 0
KGO1 051430Z 04007KT 21/19 A3009 RMK A01 T02120185  RH  085%=      5-min Rain = 0
KGO1 051431Z 04008KT 21/19 A3009 RMK A01 T02140190  RH  086%=      5-min Rain = 0
KGO1 051432Z 04007KT 22/19 A3009 RMK A01 T02150189  RH  085%=      5-min Rain = 0
KGO1 051433Z 05006KT 22/19 A3009 RMK A01 T02160192  RH  086%=      5-min Rain = 0
KGO1 051434Z 04006KT 22/19 A3009 RMK A01 T02170190  RH  084%=      5-min Rain = 0
KGO1 051435Z 03007KT 22/19 A3009 RMK A01 T02190192  RH  085%=      5-min Rain = 0
KGO1 051436Z 05008KT 22/19 A3009 RMK A01 T02200189  RH  083%=      5-min Rain = 0
KGO1 051437Z 05009KT 22/19 A3009 RMK A01 T02200186  RH  081%=      5-min Rain = 0
KGO1 051438Z 05009KT 22/19 A3009 RMK A01 T02200187  RH  081%=      5-min Rain = 0
KGO1 051439Z 05009KT 22/19 A3009 RMK A01 T02200188  RH  082%=      5-min Rain = 0
KGO1 051440Z 06010KT 22/19 A3009 RMK A01 T02220186  RH  080%=      5-min Rain = 0
KGO1 051441Z 05010KT 22/19 A3009 RMK A01 T02230187  RH  080%=      5-min Rain = 0
KGO1 051442Z 04011KT 22/19 A3009 RMK A01 T02230186  RH  079%=      5-min Rain = 0
KGO1 051443Z 04009KT 22/19 A3009 RMK A01 T02240186  RH  079%=      5-min Rain = 0
KGO1 051444Z 05008KT 22/19 A3009 RMK A01 T02240190  RH  081%=      5-min Rain = 0
KGO1 051445Z 06007KT 23/19 A3009 RMK A01 T02260188  RH  079%=      5-min Rain = 0
KGO1 051446Z 06010KT 23/19 A3009 RMK A01 T02270190  RH  080%=      5-min Rain = 0
KGO1 051447Z 05010KT 23/19 A3009 RMK A01 T02280186  RH  077%=      5-min Rain = 0
KGO1 051448Z 06010KT 23/19 A3009 RMK A01 T02280189  RH  079%=      5-min Rain = 0
KGO1 051449Z 06010KT 23/19 A3009 RMK A01 T02280188  RH  078%=      5-min Rain = 0
KGO1 051450Z 06010KT 23/19 A3008 RMK A01 T02290191  RH  079%=      5-min Rain = 0
KGO1 051451Z 05010KT 23/19 A3008 RMK A01 T02310187  RH  076%=      5-min Rain = 0
KGO1 051452Z 06010G15KT 23/19 A3008 RMK A01 T02300188  RH  077%=      5-min Rain = 0
KGO1 051453Z 05013KT 23/19 A3008 RMK A01 T02300186  RH  077%=      5-min Rain = 0
KGO1 051454Z 04011KT 23/19 A3008 RMK A01 T02300185  RH  076%=      5-min Rain = 0
KGO1 051455Z 05008KT 23/18 A3009 RMK A01 T02290184  RH  076%=      5-min Rain = 0
KGO1 051456Z 05009KT 23/18 A3009 RMK A01 T02290181  RH  074%=      5-min Rain = 0
KGO1 051457Z 04008KT 23/18 A3009 RMK A01 T02280184  RH  076%=      5-min Rain = 0
KGO1 051458Z 06009KT 23/19 A3009 RMK A01 T02280187  RH  078%=      5-min Rain = 0
KGO1 051459Z 06009KT 23/18 A3009 RMK A01 T02280184  RH  076%=      5-min Rain = 0
KGO1 051500Z 05007KT 23/18 A3009 RMK A01 T02280184  RH  076%=      5-min Rain = 0
KGO1 051501Z 05006KT 23/19 A3009 RMK A01 T02280185  RH  076%=      5-min Rain = 0
KGO1 051502Z 06008KT 23/18 A3009 RMK A01 T02280182  RH  075%=      5-min Rain = 0
KGO1 051503Z 06006KT 23/18 A3009 RMK A01 T02280181  RH  075%=      5-min Rain = 0
KGO1 051504Z 06008KT 23/18 A3009 RMK A01 T02270181  RH  075%=      5-min Rain = 0
KGO1 051505Z 06006KT 23/19 A3009 RMK A01 T02270185  RH  077%=      5-min Rain = 0
KGO1 051506Z 05006KT 23/18 A3009 RMK A01 T02270182  RH  076%=      5-min Rain = 0
KGO1 051507Z 04006KT 23/18 A3009 RMK A01 T02270183  RH  076%=      5-min Rain = 0
KGO1 051508Z 07009KT 23/19 A3009 RMK A01 T02270187  RH  078%=      5-min Rain = 0
KGO1 051509Z 11007KT 23/19 A3009 RMK A01 T02270193  RH  081%=      5-min Rain = 0
KGO1 051510Z 13007KT 23/19 A3009 RMK A01 T02270192  RH  080%=      5-min Rain = 0
KGO1 051511Z 14007KT 23/19 A3009 RMK A01 T02270193  RH  081%=      5-min Rain = 0
KGO1 051512Z 12005KT 23/19 A3009 RMK A01 T02270193  RH  081%=      5-min Rain = 0
KGO1 051513Z 13003KT 23/19 A3009 RMK A01 T02280190  RH  079%=      5-min Rain = 0
KGO1 051514Z 15006KT 23/19 A3009 RMK A01 T02280192  RH  080%=      5-min Rain = 0
KGO1 051515Z 13005KT 23/19 A3009 RMK A01 T02290192  RH  080%=      5-min Rain = 0
KGO1 051516Z 10006KT 23/19 A3009 RMK A01 T02290191  RH  079%=      5-min Rain = 0
KGO1 051517Z 09004KT 23/19 A301 RMK A01 T02290192  RH  080%=      5-min Rain = 0
KGO1 051518Z 09004KT 23/19 A301 RMK A01 T02290189  RH  078%=      5-min Rain = 0
KGO1 051519Z 10004KT 23/19 A301 RMK A01 T02290188  RH  078%=      5-min Rain = 0
KGO1 051520Z 11003KT 23/19 A301 RMK A01 T02270185  RH  077%=      5-min Rain = 0
KGO1 051521Z 11002KT 23/18 A301 RMK A01 T02260182  RH  076%=      5-min Rain = 0
KGO1 051522Z 08000KT 22/18 A301 RMK A01 T02240183  RH  077%=      5-min Rain = 0
KGO1 051523Z 14001KT 22/18 A301 RMK A01 T02240184  RH  078%=      5-min Rain = 0
KGO1 051524Z 14003KT 23/19 A301 RMK A01 T02250187  RH  079%=      5-min Rain = 0
KGO1 051525Z 14003KT 23/19 A301 RMK A01 T02260187  RH  079%=      5-min Rain = 0
KGO1 051526Z 15003KT 23/19 A301 RMK A01 T02270187  RH  078%=      5-min Rain = 0
KGO1 051527Z 13004KT 23/19 A301 RMK A01 T02280190  RH  079%=      5-min Rain = 0
KGO1 051528Z 10004KT 23/19 A301 RMK A01 T02300189  RH  078%=      5-min Rain = 0
KGO1 051529Z 08002KT 23/19 A301 RMK A01 T02300186  RH  076%=      5-min Rain = 0
KGO1 051530Z 06001KT 23/19 A301 RMK A01 T02290185  RH  076%=      5-min Rain = 0
KGO1 051531Z 02000KT 23/18 A301 RMK A01 T02290183  RH  075%=      5-min Rain = 0
KGO1 051532Z 32000KT 23/18 A301 RMK A01 T02290184  RH  075%=      5-min Rain = 0
KGO1 051533Z 04001KT 23/19 A301 RMK A01 T02300188  RH  077%=      5-min Rain = 0
KGO1 051534Z 06003KT 23/19 A301 RMK A01 T02330192  RH  077%=      5-min Rain = 0
KGO1 051535Z 02003KT 24/19 A301 RMK A01 T02370190  RH  075%=      5-min Rain = 0
KGO1 051536Z 04002KT 24/19 A301 RMK A01 T02370187  RH  074%=      5-min Rain = 0
KGO1 051537Z 07004KT 24/19 A301 RMK A01 T02370187  RH  074%=      5-min Rain = 0
KGO1 051538Z 09001KT 24/19 A301 RMK A01 T02370188  RH  074%=      5-min Rain = 0
KGO1 051539Z 09003KT 24/19 A301 RMK A01 T02370188  RH  074%=      5-min Rain = 0
KGO1 051540Z 09004KT 24/19 A301 RMK A01 T02380187  RH  073%=      5-min Rain = 0
KGO1 051541Z 07003KT 24/19 A301 RMK A01 T02380189  RH  074%=      5-min Rain = 0
KGO1 051542Z 11004KT 24/19 A301 RMK A01 T02390193  RH  075%=      5-min Rain = 0
KGO1 051543Z 11002KT 24/19 A3009 RMK A01 T02410189  RH  073%=      5-min Rain = 0
KGO1 051544Z 05003KT 24/19 A3009 RMK A01 T02410191  RH  073%=      5-min Rain = 0
KGO1 051545Z 06004KT 24/19 A3009 RMK A01 T02420185  RH  070%=      5-min Rain = 0
KGO1 051546Z 05004KT 24/19 A3009 RMK A01 T02410185  RH  071%=      5-min Rain = 0
KGO1 051547Z 03006KT 24/19 A3009 RMK A01 T02420188  RH  072%=      5-min Rain = 0
KGO1 051548Z 04006KT 25/19 A3009 RMK A01 T02450189  RH  071%=      5-min Rain = 0
KGO1 051549Z 04004KT 25/18 A3009 RMK A01 T02460183  RH  068%=      5-min Rain = 0
KGO1 051550Z 04005KT 25/19 A3009 RMK A01 T02460188  RH  070%=      5-min Rain = 0
KGO1 051551Z 04007KT 25/19 A3009 RMK A01 T02480186  RH  069%=      5-min Rain = 0
KGO1 051552Z 04005KT 25/18 A3009 RMK A01 T02480184  RH  068%=      5-min Rain = 0
KGO1 051553Z 03004KT 25/19 A3009 RMK A01 T02470185  RH  068%=      5-min Rain = 0
KGO1 051554Z 05003KT 25/19 A3009 RMK A01 T02470187  RH  069%=      5-min Rain = 0
KGO1 051555Z 04003KT 25/19 A3009 RMK A01 T02490190  RH  070%=      5-min Rain = 0
KGO1 051556Z 05007KT 25/19 A3009 RMK A01 T02520188  RH  068%=      5-min Rain = 0
KGO1 051557Z 05005KT 25/18 A3009 RMK A01 T02530183  RH  065%=      5-min Rain = 0
KGO1 051558Z 06004KT 25/18 A3009 RMK A01 T02530184  RH  065%=      5-min Rain = 0
KGO1 051559Z 07005KT 25/18 A3009 RMK A01 T02510184  RH  066%=      5-min Rain = 0
KGO1 051600Z 06008KT 25/18 A3009 RMK A01 T02510181  RH  065%=      5-min Rain = 0
KGO1 051601Z 07006KT 25/18 A3009 RMK A01 T02510176  RH  063%=      5-min Rain = 0
KGO1 051602Z 04005KT 25/17 A3009 RMK A01 T02510174  RH  062%=      5-min Rain = 0
KGO1 051603Z 04005KT 25/17 A3009 RMK A01 T02530171  RH  060%=      5-min Rain = 0
KGO1 051604Z 01007KT 25/17 A3009 RMK A01 T02540173  RH  061%=      5-min Rain = 0
KGO1 051605Z 00007KT 26/17 A3009 RMK A01 T02550170  RH  059%=      5-min Rain = 0
KGO1 051606Z 04007KT 25/18 A3009 RMK A01 T02540175  RH  061%=      5-min Rain = 0
KGO1 051607Z 02010KT 26/17 A3009 RMK A01 T02560168  RH  058%=      5-min Rain = 0
KGO1 051608Z 04007KT 26/17 A3009 RMK A01 T02560165  RH  057%=      5-min Rain = 0
KGO1 051609Z 03008KT 25/17 A3009 RMK A01 T02540167  RH  058%=      5-min Rain = 0
KGO1 051610Z 02008KT 26/17 A3009 RMK A01 T02550171  RH  060%=      5-min Rain = 0
KGO1 051611Z 04007KT 26/18 A3009 RMK A01 T02570176  RH  061%=      5-min Rain = 0
KGO1 051612Z 05008KT 26/17 A3009 RMK A01 T02610170  RH  057%=      5-min Rain = 0
KGO1 051613Z 04008KT 26/17 A3009 RMK A01 T02620169  RH  057%=      5-min Rain = 0
KGO1 051614Z 05006KT 26/18 A3009 RMK A01 T02620176  RH  059%=      5-min Rain = 0
KGO1 051615Z 03008KT 26/17 A3009 RMK A01 T02630171  RH  057%=      5-min Rain = 0
KGO1 051616Z 03007KT 26/17 A3009 RMK A01 T02610173  RH  058%=      5-min Rain = 0
KGO1 051617Z 04009KT 26/18 A3009 RMK A01 T02600175  RH  059%=      5-min Rain = 0
KGO1 051618Z 03005KT 26/17 A3009 RMK A01 T02620172  RH  058%=      5-min Rain = 0
KGO1 051619Z 02008KT 26/18 A3009 RMK A01 T02620176  RH  059%=      5-min Rain = 0
KGO1 051620Z 02008KT 26/17 A3009 RMK A01 T02620167  RH  056%=      5-min Rain = 0
KGO1 051621Z 04006KT 26/17 A3009 RMK A01 T02600166  RH  056%=      5-min Rain = 0
KGO1 051622Z 01007KT 26/17 A3009 RMK A01 T02590169  RH  057%=      5-min Rain = 0
KGO1 051623Z 02007KT 26/17 A3009 RMK A01 T02590170  RH  058%=      5-min Rain = 0
KGO1 051624Z 02005KT 26/17 A3009 RMK A01 T02580167  RH  057%=      5-min Rain = 0
KGO1 051625Z 00008KT 26/17 A3009 RMK A01 T02580171  RH  059%=      5-min Rain = 0
KGO1 051626Z 01009KT 26/17 A3009 RMK A01 T02600170  RH  058%=      5-min Rain = 0
KGO1 051627Z 02006KT 26/17 A3009 RMK A01 T02610170  RH  057%=      5-min Rain = 0
KGO1 051628Z 02006KT 26/17 A3009 RMK A01 T02620168  RH  056%=      5-min Rain = 0
KGO1 051629Z 35005KT 26/17 A3009 RMK A01 T02620168  RH  056%=      5-min Rain = 0
KGO1 051630Z 00005KT 26/17 A3009 RMK A01 T02600172  RH  058%=      5-min Rain = 0
KGO1 051631Z 01008KT 26/17 A3009 RMK A01 T02610173  RH  058%=      5-min Rain = 0
KGO1 051632Z 03007KT 26/17 A3009 RMK A01 T02640174  RH  058%=      5-min Rain = 0
KGO1 051633Z 05005KT 27/17 A3009 RMK A01 T02670170  RH  055%=      5-min Rain = 0
KGO1 051634Z 01005KT 27/17 A3009 RMK A01 T02690168  RH  054%=      5-min Rain = 0
KGO1 051635Z 35007KT 27/17 A3009 RMK A01 T02680172  RH  056%=      5-min Rain = 0
KGO1 051636Z 02007KT 27/17 A3009 RMK A01 T02670174  RH  057%=      5-min Rain = 0
KGO1 051637Z 05006KT 27/18 A3009 RMK A01 T02660175  RH  057%=      5-min Rain = 0
KGO1 051638Z 04005KT 27/17 A3009 RMK A01 T02670167  RH  054%=      5-min Rain = 0
KGO1 051639Z 01006KT 27/17 A3009 RMK A01 T02650174  RH  057%=      5-min Rain = 0
KGO1 051640Z 02009KT 26/17 A3009 RMK A01 T02640170  RH  056%=      5-min Rain = 0
KGO1 051641Z 02007KT 26/17 A301 RMK A01 T02630174  RH  058%=      5-min Rain = 0
KGO1 051642Z 01007KT 26/17 A301 RMK A01 T02630170  RH  057%=      5-min Rain = 0
KGO1 051643Z 35008KT 26/17 A301 RMK A01 T02620171  RH  057%=      5-min Rain = 0
KGO1 051644Z 35007KT 26/17 A301 RMK A01 T02620170  RH  057%=      5-min Rain = 0
KGO1 051645Z 34006KT 26/17 A301 RMK A01 T02620169  RH  057%=      5-min Rain = 0
KGO1 051646Z 34004KT 26/17 A3009 RMK A01 T02620170  RH  057%=      5-min Rain = 0
KGO1 051647Z 33005KT 26/17 A3009 RMK A01 T02640169  RH  056%=      5-min Rain = 0
KGO1 051648Z 01008KT 26/17 A3009 RMK A01 T02640174  RH  057%=      5-min Rain = 0
KGO1 051649Z 00007KT 27/17 A3009 RMK A01 T02650174  RH  057%=      5-min Rain = 0
KGO1 051650Z 03005KT 26/17 A3009 RMK A01 T02640172  RH  057%=      5-min Rain = 0
KGO1 051651Z 02004KT 26/17 A3009 RMK A01 T02630174  RH  058%=      5-min Rain = 0
KGO1 051652Z 01006KT 26/18 A3009 RMK A01 T02630176  RH  059%=      5-min Rain = 0
KGO1 051653Z 02005KT 26/18 A3009 RMK A01 T02640175  RH  058%=      5-min Rain = 0
KGO1 051654Z 02008KT 27/18 A3009 RMK A01 T02650175  RH  058%=      5-min Rain = 0
KGO1 051655Z 01006KT 26/17 A3009 RMK A01 T02630173  RH  058%=      5-min Rain = 0
KGO1 051656Z 01003KT 26/17 A3009 RMK A01 T02600173  RH  059%=      5-min Rain = 0
KGO1 051657Z 04004KT 26/18 A3009 RMK A01 T02590176  RH  060%=      5-min Rain = 0
KGO1 051658Z 05005KT 26/18 A3009 RMK A01 T02620177  RH  060%=      5-min Rain = 0
KGO1 051659Z 02008KT 27/18 A3009 RMK A01 T02650182  RH  060%=      5-min Rain = 0
KGO1 051700Z 03010KT 27/18 A3009 RMK A01 T02680179  RH  058%=      5-min Rain = 0
KGO1 051701Z 01009KT 27/18 A3009 RMK A01 T02670179  RH  058%=      5-min Rain = 0
KGO1 051702Z 03009KT 27/18 A3009 RMK A01 T02660179  RH  059%=      5-min Rain = 0
KGO1 051703Z 04008KT 27/18 A3009 RMK A01 T02650176  RH  058%=      5-min Rain = 0
KGO1 051704Z 05006KT 27/17 A3009 RMK A01 T02650173  RH  057%=      5-min Rain = 0
KGO1 051705Z 04007KT 26/18 A3009 RMK A01 T02640176  RH  058%=      5-min Rain = 0
KGO1 051706Z 02007KT 27/18 A3009 RMK A01 T02660177  RH  058%=      5-min Rain = 0
KGO1 051707Z 04011KT 27/18 A3008 RMK A01 T02680176  RH  057%=      5-min Rain = 0
KGO1 051708Z 05010KT 27/17 A3008 RMK A01 T02690171  RH  055%=      5-min Rain = 0
KGO1 051709Z 06007KT 27/17 A3008 RMK A01 T02690171  RH  055%=      5-min Rain = 0
KGO1 051710Z 06008KT 27/17 A3008 RMK A01 T02690168  RH  054%=      5-min Rain = 0
KGO1 051711Z 06007KT 27/17 A3008 RMK A01 T02700170  RH  054%=      5-min Rain = 0
KGO1 051712Z 04006KT 27/17 A3008 RMK A01 T02690169  RH  054%=      5-min Rain = 0
KGO1 051713Z 00007KT 27/17 A3008 RMK A01 T02700173  RH  055%=      5-min Rain = 0
KGO1 051714Z 35008KT 27/17 A3008 RMK A01 T02710171  RH  054%=      5-min Rain = 0
KGO1 051715Z 00006KT 27/17 A3008 RMK A01 T02730166  RH  052%=      5-min Rain = 0
KGO1 051716Z 00007KT 27/17 A3008 RMK A01 T02730172  RH  054%=      5-min Rain = 0
KGO1 051717Z 35007KT 27/17 A3008 RMK A01 T02730169  RH  053%=      5-min Rain = 0
KGO1 051718Z 35006KT 27/17 A3008 RMK A01 T02740169  RH  053%=      5-min Rain = 0
KGO1 051719Z 00006KT 27/17 A3008 RMK A01 T02720167  RH  053%=      5-min Rain = 0
KGO1 051720Z 04006KT 27/17 A3009 RMK A01 T02690170  RH  054%=      5-min Rain = 0
KGO1 051721Z 04008KT 27/17 A3009 RMK A01 T02700169  RH  054%=      5-min Rain = 0
KGO1 051722Z 03006KT 27/17 A3009 RMK A01 T02720166  RH  052%=      5-min Rain = 0
KGO1 051723Z 03005KT 27/17 A3008 RMK A01 T02690167  RH  053%=      5-min Rain = 0
KGO1 051724Z 00006KT 27/17 A3008 RMK A01 T02670173  RH  056%=      5-min Rain = 0
KGO1 051725Z 35005KT 27/17 A3008 RMK A01 T02700171  RH  055%=      5-min Rain = 0
KGO1 051726Z 03005KT 27/17 A3008 RMK A01 T02700173  RH  055%=      5-min Rain = 0
KGO1 051727Z 05006KT 27/17 A3008 RMK A01 T02720168  RH  053%=      5-min Rain = 0
KGO1 051728Z 05005KT 27/17 A3008 RMK A01 T02720166  RH  052%=      5-min Rain = 0
KGO1 051729Z 05004KT 27/17 A3008 RMK A01 T02690168  RH  054%=      5-min Rain = 0
KGO1 051730Z 04005KT 27/17 A3008 RMK A01 T02690168  RH  054%=      5-min Rain = 0
KGO1 051731Z 03006KT 27/17 A3008 RMK A01 T02700169  RH  054%=      5-min Rain = 0
KGO1 051732Z 03006KT 27/17 A3008 RMK A01 T02720172  RH  054%=      5-min Rain = 0
KGO1 051733Z 04007KT 28/17 A3008 RMK A01 T02750174  RH  054%=      5-min Rain = 0
KGO1 051734Z 03005KT 28/17 A3008 RMK A01 T02770169  RH  052%=      5-min Rain = 0
KGO1 051735Z 02007G13KT 28/17 A3008 RMK A01 T02780173  RH  053%=      5-min Rain = 0
KGO1 051736Z 04010KT 28/17 A3008 RMK A01 T02790172  RH  052%=      5-min Rain = 0
KGO1 051737Z 04009KT 28/17 A3008 RMK A01 T02800171  RH  052%=      5-min Rain = 0
KGO1 051738Z 03010KT 28/17 A3008 RMK A01 T02800173  RH  052%=      5-min Rain = 0
KGO1 051739Z 02007KT 28/17 A3008 RMK A01 T02780170  RH  052%=      5-min Rain = 0
KGO1 051740Z 02004KT 28/17 A3008 RMK A01 T02760173  RH  053%=      5-min Rain = 0
KGO1 051741Z 03004KT 28/18 A3008 RMK A01 T02760175  RH  054%=      5-min Rain = 0
KGO1 051742Z 05007KT 28/17 A3008 RMK A01 T02790172  RH  052%=      5-min Rain = 0
KGO1 051743Z 04007KT 28/17 A3008 RMK A01 T02800173  RH  052%=      5-min Rain = 0
KGO1 051744Z 02009KT 28/18 A3008 RMK A01 T02810175  RH  053%=      5-min Rain = 0
KGO1 051745Z 01009KT 28/18 A3008 RMK A01 T02810175  RH  053%=      5-min Rain = 0
KGO1 051746Z 01007KT 28/17 A3008 RMK A01 T02770173  RH  053%=      5-min Rain = 0
KGO1 051747Z 36006KT 28/17 A3008 RMK A01 T02760170  RH  052%=      5-min Rain = 0
KGO1 051748Z 03010KT 27/17 A3008 RMK A01 T02740173  RH  054%=      5-min Rain = 0
KGO1 051749Z 03010KT 27/18 A3008 RMK A01 T02740178  RH  056%=      5-min Rain = 0
KGO1 051750Z 02007KT 28/18 A3008 RMK A01 T02790178  RH  054%=      5-min Rain = 0
KGO1 051751Z 01008KT 28/18 A3008 RMK A01 T02790175  RH  053%=      5-min Rain = 0
KGO1 051752Z 02010KT 28/18 A3008 RMK A01 T02770177  RH  054%=      5-min Rain = 0
KGO1 051753Z 02010KT 28/18 A3008 RMK A01 T02770175  RH  054%=      5-min Rain = 0
KGO1 051754Z 03007KT 28/17 A3008 RMK A01 T02780171  RH  052%=      5-min Rain = 0
KGO1 051755Z 01007KT 28/17 A3008 RMK A01 T02760174  RH  054%=      5-min Rain = 0
KGO1 051756Z 00005KT 28/17 A3007 RMK A01 T02750172  RH  053%=      5-min Rain = 0
KGO1 051757Z 02006KT 27/18 A3007 RMK A01 T02730175  RH  055%=      5-min Rain = 0
KGO1 051758Z 00009KT 27/17 A3007 RMK A01 T02730173  RH  054%=      5-min Rain = 0
KGO1 051759Z 01007KT 27/18 A3007 RMK A01 T02720175  RH  055%=      5-min Rain = 0
KGO1 051800Z 03007KT 28/18 A3007 RMK A01 T02750178  RH  056%=      5-min Rain = 0
KGO1 051801Z 02010KT 28/18 A3007 RMK A01 T02820175  RH  052%=      5-min Rain = 0
KGO1 051802Z 01008KT 28/18 A3007 RMK A01 T02830176  RH  052%=      5-min Rain = 0
KGO1 051803Z 35008KT 28/17 A3007 RMK A01 T02810173  RH  052%=      5-min Rain = 0
KGO1 051804Z 01007KT 28/17 A3007 RMK A01 T02780173  RH  053%=      5-min Rain = 0
KGO1 051805Z 00007KT 28/17 A3007 RMK A01 T02770171  RH  052%=      5-min Rain = 0
KGO1 051806Z 36007KT 28/17 A3007 RMK A01 T02760171  RH  053%=      5-min Rain = 0
KGO1 051807Z 00007KT 28/17 A3007 RMK A01 T02760171  RH  053%=      5-min Rain = 0
KGO1 051808Z 02009KT 27/17 A3007 RMK A01 T02740173  RH  054%=      5-min Rain = 0
KGO1 051809Z 02008KT 28/17 A3007 RMK A01 T02770173  RH  053%=      5-min Rain = 0
KGO1 051810Z 02009KT 28/17 A3007 RMK A01 T02780174  RH  053%=      5-min Rain = 0
KGO1 051811Z 04007KT 28/17 A3007 RMK A01 T02800172  RH  052%=      5-min Rain = 0
KGO1 051812Z 03007G12KT 28/17 A3007 RMK A01 T02810167  RH  050%=      5-min Rain = 0
KGO1 051813Z 03009KT 28/17 A3007 RMK A01 T02780170  RH  052%=      5-min Rain = 0
KGO1 051814Z 03007KT 28/17 A3007 RMK A01 T02770167  RH  051%=      5-min Rain = 0
KGO1 051815Z 04003KT 28/17 A3007 RMK A01 T02750166  RH  051%=      5-min Rain = 0
KGO1 051816Z 01003KT 28/17 A3007 RMK A01 T02760168  RH  052%=      5-min Rain = 0
KGO1 051817Z 00006KT 28/17 A3007 RMK A01 T02770168  RH  051%=      5-min Rain = 0
KGO1 051818Z 02007KT 28/17 A3006 RMK A01 T02770172  RH  053%=      5-min Rain = 0
KGO1 051819Z 03009KT 28/17 A3007 RMK A01 T02780170  RH  052%=      5-min Rain = 0
KGO1 051820Z 02007KT 28/17 A3007 RMK A01 T02790165  RH  050%=      5-min Rain = 0
KGO1 051821Z 01007KT 28/17 A3006 RMK A01 T02790169  RH  051%=      5-min Rain = 0
KGO1 051822Z 35008KT 28/17 A3006 RMK A01 T02800165  RH  050%=      5-min Rain = 0
KGO1 051823Z 00008KT 28/16 A3006 RMK A01 T02810164  RH  049%=      5-min Rain = 0
KGO1 051824Z 01007KT 28/16 A3006 RMK A01 T02800163  RH  049%=      5-min Rain = 0
KGO1 051825Z 02007KT 28/17 A3006 RMK A01 T02780165  RH  050%=      5-min Rain = 0
KGO1 051826Z 03006KT 28/16 A3006 RMK A01 T02780162  RH  049%=      5-min Rain = 0
KGO1 051827Z 01003KT 28/16 A3006 RMK A01 T02770162  RH  050%=      5-min Rain = 0
KGO1 051828Z 05004KT 28/16 A3006 RMK A01 T02750162  RH  050%=      5-min Rain = 0
KGO1 051829Z 04008KT 28/16 A3006 RMK A01 T02760161  RH  049%=      5-min Rain = 0
KGO1 051830Z 02007KT 28/16 A3006 RMK A01 T02780160  RH  049%=      5-min Rain = 0
KGO1 051831Z 02004KT 28/16 A3006 RMK A01 T02780157  RH  048%=      5-min Rain = 0
KGO1 051832Z 01007KT 28/16 A3006 RMK A01 T02770162  RH  050%=      5-min Rain = 0
KGO1 051833Z 01005KT 28/16 A3006 RMK A01 T02770163  RH  050%=      5-min Rain = 0
KGO1 051834Z 35005G10KT 28/16 A3006 RMK A01 T02790162  RH  049%=      5-min Rain = 0
KGO1 051835Z 35010KT 28/16 A3006 RMK A01 T02790161  RH  049%=      5-min Rain = 0
KGO1 051836Z 35008KT 28/16 A3006 RMK A01 T02800161  RH  048%=      5-min Rain = 0
KGO1 051837Z 35007KT 28/16 A3006 RMK A01 T02800161  RH  048%=      5-min Rain = 0
KGO1 051838Z 00007KT 28/16 A3006 RMK A01 T02800163  RH  049%=      5-min Rain = 0
KGO1 051839Z 35006KT 28/16 A3006 RMK A01 T02810161  RH  048%=      5-min Rain = 0
KGO1 051840Z 35006KT 28/16 A3006 RMK A01 T02810160  RH  048%=      5-min Rain = 0
KGO1 051841Z 36004KT 28/16 A3006 RMK A01 T02810160  RH  048%=      5-min Rain = 0
KGO1 051842Z 35006KT 28/16 A3006 RMK A01 T02800161  RH  048%=      5-min Rain = 0
KGO1 051843Z 35006KT 28/16 A3006 RMK A01 T02790161  RH  049%=      5-min Rain = 0
KGO1 051844Z 01005KT 28/16 A3006 RMK A01 T02790162  RH  049%=      5-min Rain = 0
KGO1 051845Z 35004KT 28/16 A3006 RMK A01 T02800162  RH  049%=      5-min Rain = 0
KGO1 051846Z 01005KT 28/17 A3006 RMK A01 T02820166  RH  049%=      5-min Rain = 0
KGO1 051847Z 03006KT 28/17 A3006 RMK A01 T02840169  RH  050%=      5-min Rain = 0
KGO1 051848Z 03003KT 29/16 A3006 RMK A01 T02870162  RH  047%=      5-min Rain = 0
KGO1 051849Z 06005KT 29/16 A3006 RMK A01 T02850162  RH  047%=      5-min Rain = 0
KGO1 051850Z 02005KT 29/16 A3006 RMK A01 T02850163  RH  048%=      5-min Rain = 0
KGO1 051851Z 03005KT 28/16 A3006 RMK A01 T02840162  RH  048%=      5-min Rain = 0
KGO1 051852Z 03007KT 28/17 A3006 RMK A01 T02820166  RH  049%=      5-min Rain = 0
KGO1 051853Z 03005KT 28/16 A3006 RMK A01 T02840160  RH  047%=      5-min Rain = 0
KGO1 051854Z 04004KT 28/16 A3006 RMK A01 T02830164  RH  048%=      5-min Rain = 0
KGO1 051855Z 02006KT 28/17 A3006 RMK A01 T02830167  RH  049%=      5-min Rain = 0
KGO1 051856Z 01006KT 29/17 A3006 RMK A01 T02860168  RH  049%=      5-min Rain = 0
KGO1 051857Z 01005KT 29/17 A3006 RMK A01 T02860165  RH  048%=      5-min Rain = 0
KGO1 051858Z 04003KT 28/16 A3006 RMK A01 T02840164  RH  048%=      5-min Rain = 0
KGO1 051859Z 05005KT 28/17 A3006 RMK A01 T02820165  RH  049%=      5-min Rain = 0
KGO1 051900Z 06006KT 28/16 A3005 RMK A01 T02830164  RH  048%=      5-min Rain = 0
KGO1 051901Z 07006KT 28/16 A3005 RMK A01 T02830164  RH  048%=      5-min Rain = 0
KGO1 051902Z 07004KT 28/17 A3005 RMK A01 T02820165  RH  049%=      5-min Rain = 0
KGO1 051903Z 08002KT 28/16 A3005 RMK A01 T02830163  RH  048%=      5-min Rain = 0
KGO1 051904Z 08004KT 28/17 A3005 RMK A01 T02840165  RH  048%=      5-min Rain = 0
KGO1 051905Z 07007KT 28/16 A3005 RMK A01 T02840162  RH  048%=      5-min Rain = 0
KGO1 051906Z 04009KT 29/16 A3005 RMK A01 T02870164  RH  047%=      5-min Rain = 0
KGO1 051907Z 05008KT 29/16 A3005 RMK A01 T02900162  RH  046%=      5-min Rain = 0
KGO1 051908Z 05006KT 29/16 A3005 RMK A01 T02900159  RH  045%=      5-min Rain = 0
KGO1 051909Z 06007KT 29/16 A3005 RMK A01 T02890160  RH  046%=      5-min Rain = 0
KGO1 051910Z 06008KT 29/16 A3005 RMK A01 T02900158  RH  045%=      5-min Rain = 0
KGO1 051911Z 04006KT 29/16 A3005 RMK A01 T02900163  RH  046%=      5-min Rain = 0
KGO1 051912Z 06003KT 29/16 A3005 RMK A01 T02890164  RH  047%=      5-min Rain = 0
KGO1 051913Z 08003KT 29/16 A3005 RMK A01 T02870164  RH  047%=      5-min Rain = 0
KGO1 051914Z 08003KT 29/16 A3005 RMK A01 T02880163  RH  047%=      5-min Rain = 0
KGO1 051915Z 06007KT 29/17 A3005 RMK A01 T02900165  RH  047%=      5-min Rain = 0
KGO1 051916Z 04007KT 29/16 A3005 RMK A01 T02920158  RH  044%=      5-min Rain = 0
KGO1 051917Z 02005KT 29/16 A3005 RMK A01 T02900161  RH  045%=      5-min Rain = 0
KGO1 051918Z 04007KT 29/17 A3005 RMK A01 T02900165  RH  047%=      5-min Rain = 0
KGO1 051919Z 07004KT 29/16 A3005 RMK A01 T02910159  RH  045%=      5-min Rain = 0
KGO1 051920Z 05004KT 29/16 A3005 RMK A01 T02900159  RH  045%=      5-min Rain = 0
KGO1 051921Z 04002KT 29/16 A3005 RMK A01 T02880161  RH  046%=      5-min Rain = 0
KGO1 051922Z 32002KT 28/16 A3005 RMK A01 T02840159  RH  046%=      5-min Rain = 0
KGO1 051923Z 31002KT 28/16 A3004 RMK A01 T02830160  RH  047%=      5-min Rain = 0
KGO1 051924Z 10003KT 28/16 A3004 RMK A01 T02840162  RH  048%=      5-min Rain = 0
KGO1 051925Z 12004KT 29/16 A3004 RMK A01 T02850162  RH  047%=      5-min Rain = 0
KGO1 051926Z 09005KT 29/16 A3004 RMK A01 T02870161  RH  046%=      5-min Rain = 0
KGO1 051927Z 06004KT 29/16 A3004 RMK A01 T02880160  RH  046%=      5-min Rain = 0
KGO1 051928Z 10002KT 29/16 A3004 RMK A01 T02880163  RH  047%=      5-min Rain = 0
KGO1 051929Z 05003KT 29/17 A3004 RMK A01 T02880167  RH  048%=      5-min Rain = 0
KGO1 051930Z 02006KT 29/16 A3004 RMK A01 T02910164  RH  046%=      5-min Rain = 0
KGO1 051931Z 02006KT 29/16 A3004 RMK A01 T02910164  RH  046%=      5-min Rain = 0
KGO1 051932Z 05006KT 29/16 A3004 RMK A01 T02900162  RH  046%=      5-min Rain = 0
KGO1 051933Z 04003KT 29/16 A3004 RMK A01 T02900160  RH  046%=      5-min Rain = 0
KGO1 051934Z 03005KT 29/16 A3004 RMK A01 T02890162  RH  046%=      5-min Rain = 0
KGO1 051935Z 02005KT 29/16 A3004 RMK A01 T02900162  RH  046%=      5-min Rain = 0
KGO1 051936Z 01003KT 29/16 A3004 RMK A01 T02910160  RH  045%=      5-min Rain = 0
KGO1 051937Z 04004KT 29/16 A3004 RMK A01 T02910161  RH  045%=      5-min Rain = 0
KGO1 051938Z 04002KT 29/16 A3004 RMK A01 T02920156  RH  043%=      5-min Rain = 0
KGO1 051939Z 05004KT 29/16 A3004 RMK A01 T02920161  RH  045%=      5-min Rain = 0
KGO1 051940Z 03005KT 29/16 A3004 RMK A01 T02930160  RH  045%=      5-min Rain = 0
KGO1 051941Z 01004KT 29/16 A3004 RMK A01 T02930163  RH  045%=      5-min Rain = 0
KGO1 051942Z 03003KT 29/16 A3004 RMK A01 T02940161  RH  045%=      5-min Rain = 0
KGO1 051943Z 04007KT 30/16 A3004 RMK A01 T02950163  RH  045%=      5-min Rain = 0
KGO1 051944Z 02009KT 30/16 A3004 RMK A01 T02960163  RH  045%=      5-min Rain = 0
KGO1 051945Z 02008KT 30/17 A3004 RMK A01 T02950166  RH  046%=      5-min Rain = 0
KGO1 051946Z 03006KT 30/16 A3004 RMK A01 T02950162  RH  044%=      5-min Rain = 0
KGO1 051947Z 00004KT 29/16 A3004 RMK A01 T02940160  RH  044%=      5-min Rain = 0
KGO1 051948Z 35004KT 29/16 A3004 RMK A01 T02920162  RH  045%=      5-min Rain = 0
KGO1 051949Z 03005KT 29/16 A3004 RMK A01 T02910163  RH  046%=      5-min Rain = 0
KGO1 051950Z 02004KT 29/16 A3004 RMK A01 T02920160  RH  045%=      5-min Rain = 0
KGO1 051951Z 04003KT 29/16 A3004 RMK A01 T02930162  RH  045%=      5-min Rain = 0
KGO1 051952Z 04005KT 30/16 A3004 RMK A01 T02950160  RH  044%=      5-min Rain = 0
KGO1 051953Z 03005KT 29/16 A3004 RMK A01 T02940160  RH  044%=      5-min Rain = 0
KGO1 051954Z 02004KT 29/16 A3004 RMK A01 T02920162  RH  045%=      5-min Rain = 0
KGO1 051955Z 01004KT 29/16 A3004 RMK A01 T02930159  RH  044%=      5-min Rain = 0
KGO1 051956Z 03002KT 29/16 A3004 RMK A01 T02910159  RH  045%=      5-min Rain = 0
KGO1 051957Z 05003G8KT 29/17 A3004 RMK A01 T02890167  RH  048%=      5-min Rain = 0
KGO1 051958Z 05007KT 29/16 A3004 RMK A01 T02920163  RH  046%=      5-min Rain = 0
KGO1 051959Z 05007KT 29/16 A3004 RMK A01 T02930161  RH  045%=      5-min Rain = 0
KGO1 052000Z 05005KT 29/16 A3003 RMK A01 T02930163  RH  045%=      5-min Rain = 0
KGO1 052001Z 07004KT 30/16 A3003 RMK A01 T02950160  RH  044%=      5-min Rain = 0
KGO1 052002Z 10003KT 29/16 A3003 RMK A01 T02940161  RH  045%=      5-min Rain = 0
KGO1 052003Z 08004KT 29/17 A3003 RMK A01 T02940165  RH  046%=      5-min Rain = 0
KGO1 052004Z 04005KT 30/16 A3003 RMK A01 T02960163  RH  044%=      5-min Rain = 0
KGO1 052005Z 07004KT 30/16 A3003 RMK A01 T02950163  RH  045%=      5-min Rain = 0
KGO1 052006Z 10003KT 29/17 A3003 RMK A01 T02930165  RH  046%=      5-min Rain = 0
KGO1 052007Z 10004KT 29/16 A3003 RMK A01 T02900162  RH  046%=      5-min Rain = 0
KGO1 052008Z 10004KT 29/16 A3003 RMK A01 T02890161  RH  046%=      5-min Rain = 0
KGO1 052009Z 11004KT 29/16 A3003 RMK A01 T02900164  RH  047%=      5-min Rain = 0
KGO1 052010Z 10003KT 29/16 A3003 RMK A01 T02910163  RH  046%=      5-min Rain = 0
KGO1 052011Z 08001KT 29/16 A3003 RMK A01 T02920164  RH  046%=      5-min Rain = 0
KGO1 052012Z 01002KT 29/16 A3003 RMK A01 T02930164  RH  046%=      5-min Rain = 0
KGO1 052013Z 36003KT 29/16 A3003 RMK A01 T02910159  RH  045%=      5-min Rain = 0
KGO1 052014Z 03002KT 29/16 A3003 RMK A01 T02880160  RH  046%=      5-min Rain = 0
KGO1 052015Z 04002KT 29/16 A3003 RMK A01 T02870161  RH  046%=      5-min Rain = 0
KGO1 052016Z 05002KT 29/16 A3003 RMK A01 T02880161  RH  046%=      5-min Rain = 0
KGO1 052017Z 04002KT 29/16 A3003 RMK A01 T02900159  RH  045%=      5-min Rain = 0
KGO1 052018Z 04002KT 29/16 A3003 RMK A01 T02890158  RH  045%=      5-min Rain = 0
KGO1 052019Z 03001KT 29/16 A3003 RMK A01 T02870159  RH  046%=      5-min Rain = 0
KGO1 052020Z 09002KT 29/16 A3002 RMK A01 T02860163  RH  047%=      5-min Rain = 0
KGO1 052021Z 09003KT 29/17 A3002 RMK A01 T02880166  RH  048%=      5-min Rain = 0
KGO1 052022Z 11004KT 29/16 A3002 RMK A01 T02900162  RH  046%=      5-min Rain = 0
KGO1 052023Z 08004KT 29/16 A3002 RMK A01 T02930162  RH  045%=      5-min Rain = 0
KGO1 052024Z 05004KT 29/16 A3002 RMK A01 T02940160  RH  044%=      5-min Rain = 0
KGO1 052025Z 05002KT 29/17 A3002 RMK A01 T02940166  RH  046%=      5-min Rain = 0
KGO1 052026Z 10004KT 30/16 A3002 RMK A01 T02950164  RH  045%=      5-min Rain = 0
KGO1 052027Z 09005KT 30/16 A3002 RMK A01 T02980163  RH  044%=      5-min Rain = 0
KGO1 052028Z 07006KT 30/16 A3002 RMK A01 T02980163  RH  044%=      5-min Rain = 0
KGO1 052029Z 06005KT 30/17 A3002 RMK A01 T02980165  RH  045%=      5-min Rain = 0
KGO1 052030Z 06004KT 30/16 A3002 RMK A01 T02970164  RH  045%=      5-min Rain = 0
KGO1 052031Z 05005KT 30/16 A3002 RMK A01 T02960164  RH  045%=      5-min Rain = 0
KGO1 052032Z 04002KT 29/16 A3002 RMK A01 T02940161  RH  045%=      5-min Rain = 0
KGO1 052033Z 03004KT 29/17 A3002 RMK A01 T02920168  RH  047%=      5-min Rain = 0
KGO1 052034Z 01006KT 29/17 A3002 RMK A01 T02940167  RH  046%=      5-min Rain = 0
KGO1 052035Z 02005KT 30/16 A3002 RMK A01 T02960163  RH  045%=      5-min Rain = 0
KGO1 052036Z 02003KT 30/16 A3002 RMK A01 T02950164  RH  045%=      5-min Rain = 0
KGO1 052037Z 00004KT 30/17 A3002 RMK A01 T02950166  RH  046%=      5-min Rain = 0
KGO1 052038Z 01002KT 30/17 A3002 RMK A01 T02950165  RH  045%=      5-min Rain = 0
KGO1 052039Z 01005KT 30/17 A3002 RMK A01 T02960166  RH  045%=      5-min Rain = 0
KGO1 052040Z 35005KT 30/16 A3002 RMK A01 T02970164  RH  045%=      5-min Rain = 0
KGO1 052041Z 34002KT 30/17 A3002 RMK A01 T02960165  RH  045%=      5-min Rain = 0
KGO1 052042Z 32000KT 30/16 A3002 RMK A01 T02950163  RH  045%=      5-min Rain = 0
KGO1 052043Z 31000KT 30/17 A3002 RMK A01 T02950167  RH  046%=      5-min Rain = 0
KGO1 052044Z 01003KT 30/17 A3002 RMK A01 T02970170  RH  046%=      5-min Rain = 0
KGO1 052045Z 36005KT 30/17 A3002 RMK A01 T03000167  RH  045%=      5-min Rain = 0
KGO1 052046Z 00005KT 30/17 A3002 RMK A01 T03020166  RH  044%=      5-min Rain = 0
KGO1 052047Z 01005KT 30/17 A3002 RMK A01 T03020166  RH  044%=      5-min Rain = 0
KGO1 052048Z 03004KT 30/17 A3002 RMK A01 T03010167  RH  045%=      5-min Rain = 0
KGO1 052049Z 00003KT 30/16 A3002 RMK A01 T02990164  RH  044%=      5-min Rain = 0
KGO1 052050Z 36003KT 30/17 A3002 RMK A01 T02990166  RH  045%=      5-min Rain = 0
KGO1 052051Z 02002KT 30/16 A3001 RMK A01 T02980162  RH  044%=      5-min Rain = 0
KGO1 052052Z 01003KT 30/17 A3001 RMK A01 T02960166  RH  045%=      5-min Rain = 0
KGO1 052053Z 36003KT 30/16 A3001 RMK A01 T02990163  RH  044%=      5-min Rain = 0
KGO1 052054Z 01003KT 30/16 A3001 RMK A01 T03010160  RH  043%=      5-min Rain = 0
KGO1 052055Z 02002KT 30/16 A3001 RMK A01 T03020162  RH  043%=      5-min Rain = 0
KGO1 052056Z 01001KT 30/16 A3001 RMK A01 T03020164  RH  044%=      5-min Rain = 0
KGO1 052057Z 04001KT 30/17 A3001 RMK A01 T03020169  RH  045%=      5-min Rain = 0
KGO1 052058Z 00002KT 30/17 A3001 RMK A01 T03040165  RH  043%=      5-min Rain = 0
KGO1 052059Z 01004KT 31/17 A3001 RMK A01 T03050166  RH  043%=      5-min Rain = 0
KGO1 052100Z 02004KT 31/17 A3001 RMK A01 T03060165  RH  043%=      5-min Rain = 0
KGO1 052101Z 04003KT 30/16 A3001 RMK A01 T03040164  RH  043%=      5-min Rain = 0
KGO1 052102Z 04002KT 30/17 A3001 RMK A01 T03020165  RH  044%=      5-min Rain = 0
KGO1 052103Z 04001KT 30/16 A3001 RMK A01 T03020164  RH  043%=      5-min Rain = 0
KGO1 052104Z 10002KT 30/17 A3001 RMK A01 T03000170  RH  046%=      5-min Rain = 0
KGO1 052105Z 09004KT 30/16 A3001 RMK A01 T03000164  RH  044%=      5-min Rain = 0
KGO1 052106Z 08003KT 30/16 A3001 RMK A01 T03020163  RH  043%=      5-min Rain = 0
KGO1 052107Z 13003KT 30/17 A3001 RMK A01 T03010167  RH  044%=      5-min Rain = 0
KGO1 052108Z 21004KT 30/17 A3001 RMK A01 T03030167  RH  044%=      5-min Rain = 0
KGO1 052109Z 25004KT 31/17 A3001 RMK A01 T03060169  RH  044%=      5-min Rain = 0
KGO1 052110Z 28004KT 31/16 A3001 RMK A01 T03100162  RH  041%=      5-min Rain = 0
KGO1 052111Z 30002KT 31/16 A3001 RMK A01 T03090160  RH  041%=      5-min Rain = 0
KGO1 052112Z 26003KT 31/16 A3001 RMK A01 T03080158  RH  040%=      5-min Rain = 0
KGO1 052113Z 25004KT 31/16 A3001 RMK A01 T03070160  RH  041%=      5-min Rain = 0
KGO1 052114Z 25003KT 31/16 A3001 RMK A01 T03070158  RH  041%=      5-min Rain = 0
KGO1 052115Z 29002KT 31/16 A3001 RMK A01 T03060164  RH  042%=      5-min Rain = 0
KGO1 052116Z 27003KT 31/16 A3001 RMK A01 T03070159  RH  041%=      5-min Rain = 0
KGO1 052117Z 27001KT 31/16 A3001 RMK A01 T03080159  RH  041%=      5-min Rain = 0
KGO1 052118Z 19001KT 31/16 A3001 RMK A01 T03080158  RH  040%=      5-min Rain = 0
KGO1 052119Z 04003KT 31/16 A3001 RMK A01 T03080162  RH  041%=      5-min Rain = 0
KGO1 052120Z 01004KT 31/17 A3001 RMK A01 T03090167  RH  042%=      5-min Rain = 0
KGO1 052121Z 02006KT 31/16 A3001 RMK A01 T03100164  RH  041%=      5-min Rain = 0
KGO1 052122Z 02005KT 31/16 A3001 RMK A01 T03080161  RH  041%=      5-min Rain = 0
KGO1 052123Z 03006KT 31/16 A3001 RMK A01 T03050161  RH  042%=      5-min Rain = 0
KGO1 052124Z 04006KT 31/16 A3001 RMK A01 T03060157  RH  041%=      5-min Rain = 0
KGO1 052125Z 02004KT 30/16 A30 RMK A01 T03040157  RH  041%=      5-min Rain = 0
KGO1 052126Z 03004KT 30/16 A30 RMK A01 T03020158  RH  042%=      5-min Rain = 0
KGO1 052127Z 08004KT 30/16 A30 RMK A01 T03000157  RH  042%=      5-min Rain = 0
KGO1 052128Z 06002KT 30/16 A30 RMK A01 T03000159  RH  043%=      5-min Rain = 0
KGO1 052129Z 32006KT 30/16 A30 RMK A01 T03020160  RH  042%=      5-min Rain = 0
KGO1 052130Z 33006KT 30/16 A30 RMK A01 T03030160  RH  042%=      5-min Rain = 0
KGO1 052131Z 03006KT 31/16 A30 RMK A01 T03070162  RH  042%=      5-min Rain = 0
KGO1 052132Z 04007KT 31/16 A30 RMK A01 T03100158  RH  040%=      5-min Rain = 0
KGO1 052133Z 05005KT 31/16 A30 RMK A01 T03100157  RH  040%=      5-min Rain = 0
KGO1 052134Z 05005KT 31/16 A30 RMK A01 T03090156  RH  040%=      5-min Rain = 0
KGO1 052135Z 00006KT 31/16 A30 RMK A01 T03080162  RH  041%=      5-min Rain = 0
KGO1 052136Z 36008KT 31/16 A30 RMK A01 T03080161  RH  041%=      5-min Rain = 0
KGO1 052137Z 35006KT 31/16 A30 RMK A01 T03070159  RH  041%=      5-min Rain = 0
KGO1 052138Z 35007KT 31/16 A30 RMK A01 T03060158  RH  041%=      5-min Rain = 0
KGO1 052139Z 01005KT 31/16 A30 RMK A01 T03060155  RH  040%=      5-min Rain = 0
KGO1 052140Z 02004KT 31/16 A30 RMK A01 T03050156  RH  041%=      5-min Rain = 0
KGO1 052141Z 04003KT 30/15 A30 RMK A01 T03040154  RH  040%=      5-min Rain = 0
KGO1 052142Z 02003KT 30/16 A30 RMK A01 T03040156  RH  041%=      5-min Rain = 0
KGO1 052143Z 35003KT 30/15 A30 RMK A01 T03030154  RH  041%=      5-min Rain = 0
KGO1 052144Z 32004KT 30/15 A30 RMK A01 T03030151  RH  040%=      5-min Rain = 0
KGO1 052145Z 32003KT 30/15 A30 RMK A01 T03040150  RH  039%=      5-min Rain = 0
KGO1 052146Z 03002KT 30/16 A30 RMK A01 T03030155  RH  041%=      5-min Rain = 0
KGO1 052147Z 25001KT 30/15 A30 RMK A01 T03040153  RH  040%=      5-min Rain = 0
KGO1 052148Z 21001KT 30/15 A30 RMK A01 T03040154  RH  040%=      5-min Rain = 0
KGO1 052149Z 21000KT 30/15 A30 RMK A01 T03040154  RH  040%=      5-min Rain = 0
KGO1 052150Z 05001KT 31/16 A30 RMK A01 T03050159  RH  041%=      5-min Rain = 0
KGO1 052151Z 07004KT 31/16 A2999 RMK A01 T03070158  RH  040%=      5-min Rain = 0
KGO1 052152Z 06004KT 31/16 A2999 RMK A01 T03100156  RH  040%=      5-min Rain = 0
KGO1 052153Z 01006KT 31/16 A30 RMK A01 T03110158  RH  040%=      5-min Rain = 0
KGO1 052154Z 00005KT 31/16 A30 RMK A01 T03110157  RH  039%=      5-min Rain = 0
KGO1 052155Z 01006KT 31/16 A30 RMK A01 T03100160  RH  040%=      5-min Rain = 0
KGO1 052156Z 01005KT 31/16 A30 RMK A01 T03090156  RH  040%=      5-min Rain = 0
KGO1 052157Z 36005KT 31/16 A30 RMK A01 T03070157  RH  040%=      5-min Rain = 0
KGO1 052158Z 36004KT 31/15 A30 RMK A01 T03060153  RH  039%=      5-min Rain = 0
KGO1 052159Z 34004KT 31/15 A2999 RMK A01 T03060152  RH  039%=      5-min Rain = 0
KGO1 052200Z 36003KT 31/15 A2999 RMK A01 T03060153  RH  040%=      5-min Rain = 0
KGO1 052201Z 34003KT 31/15 A2999 RMK A01 T03050153  RH  040%=      5-min Rain = 0
KGO1 052202Z 33005KT 31/16 A2999 RMK A01 T03060157  RH  041%=      5-min Rain = 0
KGO1 052203Z 33005KT 31/16 A2999 RMK A01 T03100156  RH  039%=      5-min Rain = 0
KGO1 052204Z 34004KT 31/16 A2999 RMK A01 T03120155  RH  039%=      5-min Rain = 0
KGO1 052205Z 34003KT 31/16 A2999 RMK A01 T03100155  RH  039%=      5-min Rain = 0
KGO1 052206Z 33001KT 31/15 A2999 RMK A01 T03090154  RH  039%=      5-min Rain = 0
KGO1 052207Z 30002KT 31/16 A2999 RMK A01 T03080156  RH  040%=      5-min Rain = 0
KGO1 052208Z 27001KT 31/15 A2999 RMK A01 T03080151  RH  039%=      5-min Rain = 0
KGO1 052209Z 20001KT 31/15 A2999 RMK A01 T03090151  RH  038%=      5-min Rain = 0
KGO1 052210Z 16001KT 31/15 A2999 RMK A01 T03080150  RH  038%=      5-min Rain = 0
KGO1 052211Z 21001KT 31/15 A2999 RMK A01 T03060150  RH  039%=      5-min Rain = 0
KGO1 052212Z 23001KT 30/15 A2999 RMK A01 T03040150  RH  039%=      5-min Rain = 0
KGO1 052213Z 25000KT 30/15 A2999 RMK A01 T03020150  RH  040%=      5-min Rain = 0
KGO1 052214Z 23001KT 30/15 A2999 RMK A01 T03030153  RH  040%=      5-min Rain = 0
KGO1 052215Z 34002KT 31/16 A2999 RMK A01 T03070156  RH  040%=      5-min Rain = 0
KGO1 052216Z 35006KT 31/16 A2999 RMK A01 T03110156  RH  039%=      5-min Rain = 0
KGO1 052217Z 35005KT 31/16 A2999 RMK A01 T03110155  RH  039%=      5-min Rain = 0
KGO1 052218Z 02004KT 31/15 A2999 RMK A01 T03090152  RH  039%=      5-min Rain = 0
KGO1 052219Z 01005KT 31/16 A2999 RMK A01 T03070157  RH  040%=      5-min Rain = 0
KGO1 052220Z 35006KT 31/16 A2999 RMK A01 T03070159  RH  041%=      5-min Rain = 0
KGO1 052221Z 33006KT 31/16 A2999 RMK A01 T03090156  RH  040%=      5-min Rain = 0
KGO1 052222Z 35006KT 31/16 A2999 RMK A01 T03110157  RH  040%=      5-min Rain = 0
KGO1 052223Z 36007KT 31/16 A2999 RMK A01 T03110156  RH  039%=      5-min Rain = 0
KGO1 052224Z 03004KT 31/15 A2999 RMK A01 T03120153  RH  038%=      5-min Rain = 0
KGO1 052225Z 04003KT 31/16 A2999 RMK A01 T03100156  RH  039%=      5-min Rain = 0
KGO1 052226Z 06001KT 31/15 A2998 RMK A01 T03090153  RH  039%=      5-min Rain = 0
KGO1 052227Z 08003KT 31/15 A2998 RMK A01 T03090149  RH  038%=      5-min Rain = 0
KGO1 052228Z 07003KT 31/15 A2998 RMK A01 T03090150  RH  038%=      5-min Rain = 0
KGO1 052229Z 10003KT 31/15 A2998 RMK A01 T03080152  RH  039%=      5-min Rain = 0
KGO1 052230Z 04003KT 31/15 A2998 RMK A01 T03090154  RH  039%=      5-min Rain = 0
KGO1 052231Z 01003KT 31/15 A2998 RMK A01 T03110145  RH  036%=      5-min Rain = 0
KGO1 052232Z 04002KT 31/15 A2998 RMK A01 T03120147  RH  037%=      5-min Rain = 0
KGO1 052233Z 03005KT 31/15 A2998 RMK A01 T03120148  RH  037%=      5-min Rain = 0
KGO1 052234Z 04004KT 31/15 A2998 RMK A01 T03110148  RH  037%=      5-min Rain = 0
KGO1 052235Z 07002KT 31/15 A2998 RMK A01 T03100150  RH  038%=      5-min Rain = 0
KGO1 052236Z 31002KT 31/15 A2998 RMK A01 T03100149  RH  038%=      5-min Rain = 0
KGO1 052237Z 24000KT 31/15 A2998 RMK A01 T03090151  RH  038%=      5-min Rain = 0
KGO1 052238Z 07001KT 31/15 A2998 RMK A01 T03080153  RH  039%=      5-min Rain = 0
KGO1 052239Z 04005KT 31/16 A2998 RMK A01 T03080157  RH  040%=      5-min Rain = 0
KGO1 052240Z 03003KT 31/16 A2998 RMK A01 T03070159  RH  041%=      5-min Rain = 0
KGO1 052241Z 06004KT 31/16 A2998 RMK A01 T03070159  RH  041%=      5-min Rain = 0
KGO1 052242Z 06003KT 31/16 A2998 RMK A01 T03070157  RH  040%=      5-min Rain = 0
KGO1 052243Z 07003KT 31/16 A2998 RMK A01 T03070160  RH  041%=      5-min Rain = 0
KGO1 052244Z 04004KT 31/16 A2998 RMK A01 T03070158  RH  041%=      5-min Rain = 0
KGO1 052245Z 01007KT 31/16 A2998 RMK A01 T03080157  RH  040%=      5-min Rain = 0
KGO1 052246Z 01006KT 31/16 A2998 RMK A01 T03100158  RH  040%=      5-min Rain = 0
KGO1 052247Z 03006KT 31/16 A2998 RMK A01 T03110158  RH  040%=      5-min Rain = 0
KGO1 052248Z 04005KT 31/16 A2998 RMK A01 T03110155  RH  039%=      5-min Rain = 0
KGO1 052249Z 03003KT 31/15 A2998 RMK A01 T03110150  RH  038%=      5-min Rain = 0
KGO1 052250Z 07003KT 31/15 A2998 RMK A01 T03090150  RH  038%=      5-min Rain = 0
KGO1 052251Z 06002KT 31/15 A2998 RMK A01 T03090150  RH  038%=      5-min Rain = 0
KGO1 052252Z 03002KT 31/15 A2997 RMK A01 T03080152  RH  039%=      5-min Rain = 0
KGO1 052253Z 04001KT 31/15 A2997 RMK A01 T03070153  RH  039%=      5-min Rain = 0
KGO1 052254Z 01004KT 31/15 A2997 RMK A01 T03070153  RH  039%=      5-min Rain = 0
KGO1 052255Z 01004KT 31/15 A2997 RMK A01 T03080152  RH  039%=      5-min Rain = 0
KGO1 052256Z 35006KT 31/15 A2997 RMK A01 T03090152  RH  039%=      5-min Rain = 0
KGO1 052257Z 35005KT 31/15 A2997 RMK A01 T03080152  RH  039%=      5-min Rain = 0
KGO1 052258Z 00005KT 31/15 A2997 RMK A01 T03080154  RH  039%=      5-min Rain = 0
KGO1 052259Z 35004KT 31/15 A2997 RMK A01 T03080151  RH  039%=      5-min Rain = 0
KGO1 052300Z 33006KT 31/15 A2997 RMK A01 T03050152  RH  040%=      5-min Rain = 0
KGO1 052301Z 33003KT 30/15 A2997 RMK A01 T03020148  RH  039%=      5-min Rain = 0
KGO1 052302Z 35003KT 30/15 A2997 RMK A01 T02990149  RH  040%=      5-min Rain = 0
KGO1 052303Z 35003KT 30/15 A2997 RMK A01 T02990149  RH  040%=      5-min Rain = 0
KGO1 052304Z 02003KT 30/15 A2997 RMK A01 T02970150  RH  041%=      5-min Rain = 0
KGO1 052305Z 03002KT 30/15 A2997 RMK A01 T02960147  RH  040%=      5-min Rain = 0
KGO1 052306Z 03002KT 30/15 A2997 RMK A01 T02950149  RH  041%=      5-min Rain = 0
KGO1 052307Z 02001KT 30/15 A2997 RMK A01 T02950148  RH  041%=      5-min Rain = 0
KGO1 052308Z 00000KT 30/15 A2997 RMK A01 T02950152  RH  042%=      5-min Rain = 0
KGO1 052309Z 03001KT 30/15 A2997 RMK A01 T02970150  RH  041%=      5-min Rain = 0
KGO1 052310Z 02002KT 30/15 A2997 RMK A01 T02990151  RH  041%=      5-min Rain = 0
KGO1 052311Z 05001KT 30/15 A2997 RMK A01 T03010149  RH  040%=      5-min Rain = 0
KGO1 052312Z 34001KT 30/15 A2997 RMK A01 T03020153  RH  040%=      5-min Rain = 0
KGO1 052313Z 01002KT 30/15 A2997 RMK A01 T03040154  RH  040%=      5-min Rain = 0
KGO1 052314Z 03002KT 31/15 A2997 RMK A01 T03060150  RH  039%=      5-min Rain = 0
KGO1 052315Z 00003KT 31/16 A2997 RMK A01 T03060158  RH  041%=      5-min Rain = 0
KGO1 052316Z 00003KT 31/15 A2997 RMK A01 T03080154  RH  039%=      5-min Rain = 0
KGO1 052317Z 05001KT 31/15 A2996 RMK A01 T03090153  RH  039%=      5-min Rain = 0
KGO1 052318Z 09001KT 31/15 A2996 RMK A01 T03080151  RH  039%=      5-min Rain = 0
KGO1 052319Z 11002KT 31/15 A2996 RMK A01 T03070152  RH  039%=      5-min Rain = 0
KGO1 052320Z 11001KT 31/15 A2996 RMK A01 T03060151  RH  039%=      5-min Rain = 0
KGO1 052321Z 08001KT 31/15 A2996 RMK A01 T03060152  RH  039%=      5-min Rain = 0
KGO1 052322Z 07000KT 31/15 A2996 RMK A01 T03060154  RH  040%=      5-min Rain = 0
KGO1 052323Z 29002KT 31/15 A2996 RMK A01 T03060154  RH  040%=      5-min Rain = 0
KGO1 052324Z 31003KT 31/15 A2996 RMK A01 T03090150  RH  038%=      5-min Rain = 0
KGO1 052325Z 31006KT 31/15 A2996 RMK A01 T03090151  RH  038%=      5-min Rain = 0
KGO1 052326Z 32004KT 31/15 A2996 RMK A01 T03090153  RH  039%=      5-min Rain = 0
KGO1 052327Z 34003KT 31/15 A2996 RMK A01 T03090149  RH  038%=      5-min Rain = 0
KGO1 052328Z 34004KT 31/15 A2996 RMK A01 T03100153  RH  039%=      5-min Rain = 0
KGO1 052329Z 31005KT 31/16 A2996 RMK A01 T03100155  RH  039%=      5-min Rain = 0
KGO1 052330Z 30005KT 31/16 A2996 RMK A01 T03130157  RH  039%=      5-min Rain = 0
KGO1 052331Z 29005KT 31/15 A2996 RMK A01 T03140154  RH  038%=      5-min Rain = 0
KGO1 052332Z 29004KT 31/15 A2996 RMK A01 T03130154  RH  038%=      5-min Rain = 0
KGO1 052333Z 27003KT 31/15 A2996 RMK A01 T03120151  RH  038%=      5-min Rain = 0
KGO1 052334Z 28003KT 31/15 A2996 RMK A01 T03100153  RH  038%=      5-min Rain = 0
KGO1 052335Z 26002KT 31/16 A2996 RMK A01 T03100155  RH  039%=      5-min Rain = 0
KGO1 052336Z 28002KT 31/15 A2996 RMK A01 T03110151  RH  038%=      5-min Rain = 0
KGO1 052337Z 31002KT 31/15 A2996 RMK A01 T03100152  RH  038%=      5-min Rain = 0
KGO1 052338Z 30001KT 31/16 A2996 RMK A01 T03100157  RH  040%=      5-min Rain = 0
KGO1 052339Z 26003KT 31/16 A2996 RMK A01 T03110155  RH  039%=      5-min Rain = 0
KGO1 052340Z 26003KT 31/15 A2996 RMK A01 T03120152  RH  038%=      5-min Rain = 0
KGO1 052341Z 26003KT 31/15 A2996 RMK A01 T03120153  RH  038%=      5-min Rain = 0
KGO1 052342Z 28002KT 31/15 A2996 RMK A01 T03120153  RH  038%=      5-min Rain = 0
KGO1 052343Z 30003KT 31/15 A2996 RMK A01 T03120151  RH  038%=      5-min Rain = 0
KGO1 052344Z 32004KT 31/15 A2996 RMK A01 T03120153  RH  038%=      5-min Rain = 0
KGO1 052345Z 32004KT 31/16 A2996 RMK A01 T03120155  RH  039%=      5-min Rain = 0
KGO1 052346Z 36004KT 31/15 A2996 RMK A01 T03130153  RH  038%=      5-min Rain = 0
KGO1 052347Z 33004KT 31/16 A2996 RMK A01 T03130155  RH  039%=      5-min Rain = 0
KGO1 052348Z 32003KT 31/15 A2996 RMK A01 T03120150  RH  037%=      5-min Rain = 0
KGO1 052349Z 33002KT 31/15 A2996 RMK A01 T03110154  RH  039%=      5-min Rain = 0
KGO1 052350Z 01003KT 31/15 A2996 RMK A01 T03110152  RH  038%=      5-min Rain = 0
KGO1 052351Z 36004KT 31/16 A2996 RMK A01 T03100156  RH  040%=      5-min Rain = 0
KGO1 052352Z 02003KT 31/16 A2996 RMK A01 T03090155  RH  039%=      5-min Rain = 0
KGO1 052353Z 01005KT 31/16 A2996 RMK A01 T03090158  RH  040%=      5-min Rain = 0
KGO1 052354Z 00005KT 31/16 A2996 RMK A01 T03080160  RH  041%=      5-min Rain = 0
KGO1 052355Z 36005KT 31/16 A2996 RMK A01 T03070159  RH  041%=      5-min Rain = 0
KGO1 052356Z 02006KT 31/17 A2996 RMK A01 T03060167  RH  043%=      5-min Rain = 0
KGO1 052357Z 03007KT 31/16 A2996 RMK A01 T03070163  RH  042%=      5-min Rain = 0
KGO1 052358Z 03006KT 31/16 A2996 RMK A01 T03080162  RH  041%=      5-min Rain = 0
KGO1 052359Z 03005KT 31/16 A2996 RMK A01 T03070161  RH  041%=      5-min Rain = 0
KGO1 060000Z 01006KT 31/17 A2996 RMK A01 T03060165  RH  043%=      5-min Rain = 0
KGO1 060001Z 01006KT 31/17 A2996 RMK A01 T03050165  RH  043%=      5-min Rain = 0
KGO1 060002Z 36005KT 31/16 A2996 RMK A01 T03050156  RH  040%=      5-min Rain = 0
KGO1 060003Z 35004KT 30/16 A2996 RMK A01 T03040159  RH  041%=      5-min Rain = 0
KGO1 060004Z 01003KT 30/16 A2996 RMK A01 T03040157  RH  041%=      5-min Rain = 0
KGO1 060005Z 01002KT 30/16 A2996 RMK A01 T03040159  RH  041%=      5-min Rain = 0
KGO1 060006Z 03001KT 31/16 A2996 RMK A01 T03050162  RH  042%=      5-min Rain = 0
KGO1 060007Z 03002KT 31/16 A2996 RMK A01 T03060162  RH  042%=      5-min Rain = 0
KGO1 060008Z 04005KT 31/16 A2996 RMK A01 T03060160  RH  041%=      5-min Rain = 0
KGO1 060009Z 03005KT 31/16 A2996 RMK A01 T03060160  RH  041%=      5-min Rain = 0
KGO1 060010Z 01004KT 31/16 A2996 RMK A01 T03060161  RH  042%=      5-min Rain = 0
KGO1 060011Z 04005KT 31/16 A2996 RMK A01 T03060162  RH  042%=      5-min Rain = 0
KGO1 060012Z 04005KT 31/16 A2996 RMK A01 T03060158  RH  041%=      5-min Rain = 0
KGO1 060013Z 03005KT 31/16 A2996 RMK A01 T03060162  RH  042%=      5-min Rain = 0
KGO1 060014Z 02006KT 31/16 A2996 RMK A01 T03060162  RH  042%=      5-min Rain = 0
KGO1 060015Z 02006KT 31/16 A2996 RMK A01 T03050164  RH  043%=      5-min Rain = 0
KGO1 060016Z 02005KT 31/16 A2996 RMK A01 T03050161  RH  042%=      5-min Rain = 0
KGO1 060017Z 03005KT 30/16 A2996 RMK A01 T03040161  RH  042%=      5-min Rain = 0
KGO1 060018Z 04003KT 30/16 A2996 RMK A01 T03030159  RH  042%=      5-min Rain = 0
KGO1 060019Z 03002KT 30/16 A2996 RMK A01 T03030159  RH  042%=      5-min Rain = 0
KGO1 060020Z 02004KT 30/16 A2996 RMK A01 T03030163  RH  043%=      5-min Rain = 0
KGO1 060021Z 03004KT 30/16 A2996 RMK A01 T03030160  RH  042%=      5-min Rain = 0
KGO1 060022Z 03004KT 30/16 A2996 RMK A01 T03030160  RH  042%=      5-min Rain = 0
KGO1 060023Z 04003KT 30/16 A2996 RMK A01 T03040159  RH  042%=      5-min Rain = 0
KGO1 060024Z 03005KT 30/16 A2996 RMK A01 T03030163  RH  043%=      5-min Rain = 0
KGO1 060025Z 01005KT 30/16 A2996 RMK A01 T03040159  RH  042%=      5-min Rain = 0
KGO1 060026Z 00004KT 30/16 A2996 RMK A01 T03030160  RH  042%=      5-min Rain = 0
KGO1 060027Z 01006KT 30/16 A2996 RMK A01 T03020164  RH  043%=      5-min Rain = 0
KGO1 060028Z 02005KT 30/16 A2996 RMK A01 T03010162  RH  043%=      5-min Rain = 0
KGO1 060029Z 02007KT 30/16 A2996 RMK A01 T03010163  RH  043%=      5-min Rain = 0
KGO1 060030Z 01007KT 30/16 A2996 RMK A01 T03010160  RH  043%=      5-min Rain = 0
KGO1 060031Z 01006KT 30/16 A2996 RMK A01 T03010159  RH  042%=      5-min Rain = 0
KGO1 060032Z 02007KT 30/16 A2997 RMK A01 T03000161  RH  043%=      5-min Rain = 0
KGO1 060033Z 03006KT 30/16 A2997 RMK A01 T03000160  RH  043%=      5-min Rain = 0
KGO1 060034Z 05006KT 30/16 A2997 RMK A01 T02990160  RH  043%=      5-min Rain = 0
KGO1 060035Z 05005KT 30/16 A2997 RMK A01 T02990159  RH  043%=      5-min Rain = 0
KGO1 060036Z 04005KT 30/16 A2997 RMK A01 T03000159  RH  042%=      5-min Rain = 0
KGO1 060037Z 04005KT 30/16 A2997 RMK A01 T03000158  RH  042%=      5-min Rain = 0
KGO1 060038Z 04007KT 30/16 A2997 RMK A01 T03010157  RH  042%=      5-min Rain = 0
KGO1 060039Z 03006KT 30/16 A2997 RMK A01 T03010159  RH  042%=      5-min Rain = 0
KGO1 060040Z 04006KT 30/16 A2997 RMK A01 T03010161  RH  043%=      5-min Rain = 0
KGO1 060041Z 04006KT 30/16 A2997 RMK A01 T03010157  RH  042%=      5-min Rain = 0
KGO1 060042Z 05005KT 30/16 A2997 RMK A01 T03000159  RH  042%=      5-min Rain = 0
KGO1 060043Z 05005KT 30/16 A2997 RMK A01 T02990160  RH  043%=      5-min Rain = 0
KGO1 060044Z 05005KT 30/16 A2997 RMK A01 T02990161  RH  043%=      5-min Rain = 0
KGO1 060045Z 05005KT 30/16 A2997 RMK A01 T03000162  RH  043%=      5-min Rain = 0
KGO1 060046Z 05005KT 30/16 A2997 RMK A01 T03000159  RH  043%=      5-min Rain = 0
KGO1 060047Z 05007KT 30/16 A2997 RMK A01 T02990162  RH  044%=      5-min Rain = 0
KGO1 060048Z 05006KT 30/16 A2997 RMK A01 T02990163  RH  044%=      5-min Rain = 0
KGO1 060049Z 04005KT 30/16 A2997 RMK A01 T02980163  RH  044%=      5-min Rain = 0
KGO1 060050Z 04005KT 30/16 A2997 RMK A01 T02960163  RH  045%=      5-min Rain = 0
KGO1 060051Z 06005KT 29/16 A2997 RMK A01 T02940163  RH  045%=      5-min Rain = 0
KGO1 060052Z 05006KT 29/16 A2997 RMK A01 T02930161  RH  045%=      5-min Rain = 0
KGO1 060053Z 06005KT 29/16 A2997 RMK A01 T02920163  RH  046%=      5-min Rain = 0
KGO1 060054Z 05005KT 29/16 A2997 RMK A01 T02910162  RH  046%=      5-min Rain = 0
KGO1 060055Z 04005KT 29/16 A2997 RMK A01 T02920164  RH  046%=      5-min Rain = 0
KGO1 060056Z 04005KT 29/17 A2997 RMK A01 T02930165  RH  046%=      5-min Rain = 0
KGO1 060057Z 04005KT 29/17 A2997 RMK A01 T02940166  RH  046%=      5-min Rain = 0
KGO1 060058Z 04006KT 30/17 A2997 RMK A01 T02950165  RH  045%=      5-min Rain = 0
KGO1 060059Z 04005KT 30/17 A2997 RMK A01 T02950165  RH  045%=      5-min Rain = 0
KGO1 060100Z 04005KT 29/17 A2997 RMK A01 T02940166  RH  046%=      5-min Rain = 0
KGO1 060101Z 04004KT 29/17 A2997 RMK A01 T02940168  RH  047%=      5-min Rain = 0
KGO1 060102Z 04004KT 29/17 A2997 RMK A01 T02940169  RH  047%=      5-min Rain = 0
KGO1 060103Z 04005KT 29/17 A2997 RMK A01 T02940167  RH  046%=      5-min Rain = 0
KGO1 060104Z 04004KT 29/17 A2997 RMK A01 T02940168  RH  047%=      5-min Rain = 0
KGO1 060105Z 04005KT 29/17 A2997 RMK A01 T02930167  RH  047%=      5-min Rain = 0
KGO1 060106Z 04005KT 29/17 A2998 RMK A01 T02920166  RH  047%=      5-min Rain = 0
KGO1 060107Z 04005KT 29/16 A2998 RMK A01 T02910163  RH  046%=      5-min Rain = 0
KGO1 060108Z 04004KT 29/17 A2998 RMK A01 T02900166  RH  047%=      5-min Rain = 0
KGO1 060109Z 03004KT 29/17 A2998 RMK A01 T02880168  RH  048%=      5-min Rain = 0
KGO1 060110Z 03005KT 29/17 A2998 RMK A01 T02870167  RH  048%=      5-min Rain = 0
KGO1 060111Z 03005KT 29/17 A2998 RMK A01 T02860169  RH  049%=      5-min Rain = 0
KGO1 060112Z 03004KT 28/17 A2998 RMK A01 T02840171  RH  050%=      5-min Rain = 0
KGO1 060113Z 03004KT 28/17 A2998 RMK A01 T02830172  RH  051%=      5-min Rain = 0
KGO1 060114Z 03004KT 28/17 A2998 RMK A01 T02820173  RH  052%=      5-min Rain = 0
KGO1 060115Z 03005KT 28/17 A2998 RMK A01 T02810173  RH  052%=      5-min Rain = 0
KGO1 060116Z 03004KT 28/17 A2998 RMK A01 T02800172  RH  052%=      5-min Rain = 0
KGO1 060117Z 03005KT 28/17 A2998 RMK A01 T02800172  RH  052%=      5-min Rain = 0
KGO1 060118Z 03004KT 28/17 A2998 RMK A01 T02800174  RH  053%=      5-min Rain = 0
KGO1 060119Z 03004KT 28/17 A2998 RMK A01 T02790174  RH  053%=      5-min Rain = 0
KGO1 060120Z 03004KT 28/17 A2998 RMK A01 T02780174  RH  053%=      5-min Rain = 0
KGO1 060121Z 03005KT 28/17 A2998 RMK A01 T02780174  RH  053%=      5-min Rain = 0
KGO1 060122Z 03004KT 28/17 A2998 RMK A01 T02770174  RH  053%=      5-min Rain = 0
KGO1 060123Z 03004KT 28/17 A2998 RMK A01 T02760173  RH  053%=      5-min Rain = 0
KGO1 060124Z 03004KT 28/17 A2998 RMK A01 T02760173  RH  053%=      5-min Rain = 0
KGO1 060125Z 03005KT 28/17 A2998 RMK A01 T02760171  RH  053%=      5-min Rain = 0
KGO1 060126Z 03004KT 28/17 A2998 RMK A01 T02760171  RH  053%=      5-min Rain = 0
KGO1 060127Z 03004KT 28/17 A2998 RMK A01 T02750171  RH  053%=      5-min Rain = 0
KGO1 060128Z 04004KT 28/17 A2998 RMK A01 T02750171  RH  053%=      5-min Rain = 0
KGO1 060129Z 04003KT 27/17 A2998 RMK A01 T02740170  RH  053%=      5-min Rain = 0
KGO1 060130Z 03004KT 27/17 A2998 RMK A01 T02740171  RH  053%=      5-min Rain = 0
KGO1 060131Z 03003KT 27/17 A2998 RMK A01 T02730170  RH  053%=      5-min Rain = 0
KGO1 060132Z 03004KT 27/17 A2998 RMK A01 T02740170  RH  053%=      5-min Rain = 0
KGO1 060133Z 04003KT 27/17 A2998 RMK A01 T02730169  RH  053%=      5-min Rain = 0
KGO1 060134Z 03003KT 27/17 A2998 RMK A01 T02730170  RH  053%=      5-min Rain = 0
KGO1 060135Z 03003KT 27/17 A2998 RMK A01 T02730170  RH  053%=      5-min Rain = 0
KGO1 060136Z 03003KT 27/17 A2998 RMK A01 T02730171  RH  054%=      5-min Rain = 0
KGO1 060137Z 03003KT 27/17 A2998 RMK A01 T02720171  RH  054%=      5-min Rain = 0
KGO1 060138Z 03003KT 27/17 A2998 RMK A01 T02710170  RH  054%=      5-min Rain = 0
KGO1 060139Z 04003KT 27/17 A2998 RMK A01 T02710170  RH  054%=      5-min Rain = 0
KGO1 060140Z 03003KT 27/17 A2998 RMK A01 T02710170  RH  054%=      5-min Rain = 0
KGO1 060141Z 03003KT 27/17 A2999 RMK A01 T02710171  RH  054%=      5-min Rain = 0
KGO1 060142Z 04003KT 27/18 A2999 RMK A01 T02710175  RH  056%=      5-min Rain = 0
KGO1 060143Z 04003KT 27/18 A2999 RMK A01 T02690175  RH  056%=      5-min Rain = 0
KGO1 060144Z 04003KT 27/17 A2999 RMK A01 T02680173  RH  056%=      5-min Rain = 0
KGO1 060145Z 04003KT 27/17 A2999 RMK A01 T02680174  RH  056%=      5-min Rain = 0
KGO1 060146Z 04004KT 27/17 A2999 RMK A01 T02670174  RH  057%=      5-min Rain = 0
KGO1 060147Z 04004KT 27/17 A2999 RMK A01 T02670173  RH  056%=      5-min Rain = 0
KGO1 060148Z 04004KT 27/17 A2999 RMK A01 T02680171  RH  055%=      5-min Rain = 0
KGO1 060149Z 04004KT 27/17 A2999 RMK A01 T02690172  RH  055%=      5-min Rain = 0
KGO1 060150Z 05004KT 27/17 A2999 RMK A01 T02700173  RH  055%=      5-min Rain = 0
KGO1 060151Z 05004KT 27/18 A2999 RMK A01 T02700176  RH  056%=      5-min Rain = 0
KGO1 060152Z 05003KT 27/18 A2999 RMK A01 T02700175  RH  056%=      5-min Rain = 0
KGO1 060153Z 05004KT 27/18 A2999 RMK A01 T02710176  RH  056%=      5-min Rain = 0
KGO1 060154Z 04003KT 27/18 A2999 RMK A01 T02710177  RH  057%=      5-min Rain = 0
KGO1 060155Z 04004KT 27/18 A2999 RMK A01 T02710180  RH  057%=      5-min Rain = 0
KGO1 060156Z 04004KT 27/18 A2999 RMK A01 T02710180  RH  058%=      5-min Rain = 0
KGO1 060157Z 04004KT 27/18 A2999 RMK A01 T02710179  RH  057%=      5-min Rain = 0
KGO1 060158Z 04003KT 27/18 A2999 RMK A01 T02700178  RH  057%=      5-min Rain = 0
KGO1 060159Z 04003KT 27/18 A2999 RMK A01 T02700176  RH  056%=      5-min Rain = 0
KGO1 060200Z 04004KT 27/18 A2999 RMK A01 T02700176  RH  056%=      5-min Rain = 0
KGO1 060201Z 05004KT 27/18 A2999 RMK A01 T02700177  RH  057%=      5-min Rain = 0
KGO1 060202Z 06007KT 27/17 A2999 RMK A01 T02700174  RH  056%=      5-min Rain = 0
KGO1 060203Z 07008KT 27/18 A2999 RMK A01 T02700176  RH  057%=      5-min Rain = 0
KGO1 060204Z 07007KT 27/18 A2999 RMK A01 T02700179  RH  057%=      5-min Rain = 0
KGO1 060205Z 07007KT 27/18 A2999 RMK A01 T02700180  RH  058%=      5-min Rain = 0
KGO1 060206Z 06006KT 27/18 A30 RMK A01 T02700182  RH  059%=      5-min Rain = 0
KGO1 060207Z 05007KT 27/18 A30 RMK A01 T02690183  RH  059%=      5-min Rain = 0
KGO1 060208Z 04008KT 27/18 A30 RMK A01 T02690184  RH  060%=      5-min Rain = 0
KGO1 060209Z 02010KT 27/18 A30 RMK A01 T02680184  RH  060%=      5-min Rain = 0
KGO1 060210Z 02013KT 27/19 A30 RMK A01 T02660185  RH  061%=      5-min Rain = 0
KGO1 060211Z 02014G19KT 26/18 A30 RMK A01 T02580181  RH  062%=      5-min Rain = 0
KGO1 060212Z 04017KT 25/18 A30 RMK A01 T02520177  RH  063%=      5-min Rain = 0
KGO1 060213Z 03017KT 25/18 A3001 RMK A01 T02490175  RH  063%=      5-min Rain = 0
KGO1 060214Z 04014KT 25/17 A3001 RMK A01 T02470174  RH  064%=      5-min Rain = 0
KGO1 060215Z 04012KT 25/17 A3001 RMK A01 T02450174  RH  065%=      5-min Rain = 0
KGO1 060216Z 04013KT 24/18 A3001 RMK A01 T02440175  RH  065%=      5-min Rain = 0
KGO1 060217Z 04016G23KT 24/18 A3001 RMK A01 T02430175  RH  066%=      5-min Rain = 0
KGO1 060218Z 03018KT 24/18 A3001 RMK A01 T02430175  RH  066%=      5-min Rain = 0
KGO1 060219Z 04018KT 24/18 A3001 RMK A01 T02410176  RH  067%=      5-min Rain = 0
KGO1 060220Z 04018KT 24/17 A3001 RMK A01 T02400173  RH  066%=      5-min Rain = 0
KGO1 060221Z 04019G24KT 24/17 A3001 RMK A01 T02380171  RH  066%=      5-min Rain = 0
KGO1 060222Z 04021KT 23/17 A3001 RMK A01 T02320169  RH  067%=      5-min Rain = 0
KGO1 060223Z 04020KT 23/17 A3001 RMK A01 T02280169  RH  069%=      5-min Rain = 0
KGO1 060224Z 04019KT 23/17 A3001 RMK A01 T02260170  RH  070%=      5-min Rain = 0
KGO1 060225Z 04015G21KT 23/17 A3001 RMK A01 T02260171  RH  071%=      5-min Rain = 0
KGO1 060226Z 05016KT 23/17 A3001 RMK A01 T02260172  RH  072%=      5-min Rain = 0
KGO1 060227Z 05015KT 23/17 A3001 RMK A01 T02270173  RH  072%=      5-min Rain = 0
KGO1 060228Z 05015KT 23/17 A3001 RMK A01 T02270173  RH  071%=      5-min Rain = 0
KGO1 060229Z 05016KT 23/17 A3001 RMK A01 T02270174  RH  072%=      5-min Rain = 0
KGO1 060230Z 05016KT 23/18 A3001 RMK A01 T02280178  RH  074%=      5-min Rain = 0
KGO1 060231Z 06014G20KT 23/18 A3001 RMK A01 T02280182  RH  075%=      5-min Rain = 0
KGO1 060232Z 06013G18KT 23/18 A3001 RMK A01 T02290183  RH  075%=      5-min Rain = 0
KGO1 060233Z 06014KT 23/19 A3001 RMK A01 T02290186  RH  077%=      5-min Rain = 0
KGO1 060234Z 05014KT 23/19 A3001 RMK A01 T02290186  RH  077%=      5-min Rain = 0
KGO1 060235Z 05012KT 23/19 A3001 RMK A01 T02300186  RH  076%=      5-min Rain = 0
KGO1 060236Z 05011KT 23/19 A3001 RMK A01 T02320187  RH  076%=      5-min Rain = 0
KGO1 060237Z 05011KT 23/19 A3001 RMK A01 T02320187  RH  076%=      5-min Rain = 0
KGO1 060238Z 05011KT 23/19 A3001 RMK A01 T02320186  RH  075%=      5-min Rain = 0
KGO1 060239Z 06012KT 23/18 A3001 RMK A01 T02320184  RH  075%=      5-min Rain = 0
KGO1 060240Z 06013KT 23/18 A3001 RMK A01 T02310182  RH  074%=      5-min Rain = 0
KGO1 060241Z 07013KT 23/18 A3001 RMK A01 T02310178  RH  072%=      5-min Rain = 0
KGO1 060242Z 07014G20KT 23/18 A3001 RMK A01 T02320178  RH  072%=      5-min Rain = 0
KGO1 060243Z 07015KT 23/18 A3001 RMK A01 T02320179  RH  072%=      5-min Rain = 0
KGO1 060244Z 07013KT 23/18 A3002 RMK A01 T02300178  RH  073%=      5-min Rain = 0
KGO1 060245Z 06013KT 23/18 A3002 RMK A01 T02250177  RH  074%=      5-min Rain = 0
KGO1 060246Z 06013KT 22/18 A3002 RMK A01 T02220177  RH  076%=      5-min Rain = 0
KGO1 060247Z 06010KT 22/18 A3002 RMK A01 T02200178  RH  077%=      5-min Rain = 0
KGO1 060248Z 06011KT 22/18 A3002 RMK A01 T02190179  RH  078%=      5-min Rain = 0
KGO1 060249Z 07009KT 22/18 A3002 RMK A01 T02190179  RH  078%=      5-min Rain = 0
KGO1 060250Z 07009KT 22/18 A3002 RMK A01 T02190179  RH  078%=      5-min Rain = 0
KGO1 060251Z 07010KT 22/18 A3002 RMK A01 T02190178  RH  077%=      5-min Rain = 0
KGO1 060252Z 06011KT 22/18 A3002 RMK A01 T02190177  RH  077%=      5-min Rain = 0
KGO1 060253Z 06010KT 22/18 A3002 RMK A01 T02190176  RH  077%=      5-min Rain = 0
KGO1 060254Z 06010KT 22/18 A3002 RMK A01 T02190177  RH  077%=      5-min Rain = 0
KGO1 060255Z 06011KT 22/18 A3002 RMK A01 T02190176  RH  076%=      5-min Rain = 0
KGO1 060256Z 06011KT 22/18 A3002 RMK A01 T02190175  RH  076%=      5-min Rain = 0
KGO1 060257Z 06011KT 22/17 A3002 RMK A01 T02190174  RH  076%=      5-min Rain = 0
KGO1 060258Z 06009KT 22/17 A3002 RMK A01 T02180174  RH  076%=      5-min Rain = 0
KGO1 060259Z 06009KT 22/17 A3002 RMK A01 T02180174  RH  076%=      5-min Rain = 0
KGO1 060300Z 06008KT 22/17 A3002 RMK A01 T02190174  RH  076%=      5-min Rain = 0
KGO1 060301Z 06008KT 22/17 A3002 RMK A01 T02180173  RH  076%=      5-min Rain = 0
KGO1 060302Z 07010KT 22/17 A3002 RMK A01 T02180173  RH  075%=      5-min Rain = 0
KGO1 060303Z 06009KT 22/17 A3001 RMK A01 T02190173  RH  075%=      5-min Rain = 0
KGO1 060304Z 07008KT 22/17 A3001 RMK A01 T02190173  RH  075%=      5-min Rain = 0
KGO1 060305Z 08009KT 22/17 A3001 RMK A01 T02190172  RH  074%=      5-min Rain = 0
KGO1 060306Z 07008KT 22/17 A3001 RMK A01 T02190170  RH  074%=      5-min Rain = 0
KGO1 060307Z 08009KT 22/17 A3001 RMK A01 T02190168  RH  073%=      5-min Rain = 0
KGO1 060308Z 08006KT 22/17 A3001 RMK A01 T02190168  RH  073%=      5-min Rain = 0
KGO1 060309Z 09008KT 22/17 A3001 RMK A01 T02190169  RH  073%=      5-min Rain = 0
KGO1 060310Z 09009KT 22/17 A3001 RMK A01 T02190169  RH  073%=      5-min Rain = 0
KGO1 060311Z 09007KT 22/17 A3001 RMK A01 T02190169  RH  073%=      5-min Rain = 0
KGO1 060312Z 09008KT 22/17 A3001 RMK A01 T02190169  RH  073%=      5-min Rain = 0
KGO1 060313Z 09008KT 22/17 A3001 RMK A01 T02190169  RH  073%=      5-min Rain = 0
KGO1 060314Z 09008KT 22/17 A3002 RMK A01 T02190170  RH  074%=      5-min Rain = 0
KGO1 060315Z 08008KT 22/17 A3002 RMK A01 T02190170  RH  074%=      5-min Rain = 0
KGO1 060316Z 08008KT 22/17 A3002 RMK A01 T02190171  RH  074%=      5-min Rain = 0
KGO1 060317Z 08006KT 22/17 A3002 RMK A01 T02190171  RH  074%=      5-min Rain = 0
KGO1 060318Z 08008KT 22/17 A3002 RMK A01 T02190169  RH  074%=      5-min Rain = 0
KGO1 060319Z 08007KT 22/17 A3002 RMK A01 T02190169  RH  073%=      5-min Rain = 0
KGO1 060320Z 09008KT 22/17 A3002 RMK A01 T02200169  RH  073%=      5-min Rain = 0
KGO1 060321Z 09007KT 22/17 A3002 RMK A01 T02200170  RH  073%=      5-min Rain = 0
KGO1 060322Z 09006KT 22/17 A3002 RMK A01 T02210170  RH  073%=      5-min Rain = 0
KGO1 060323Z 09006KT 22/17 A3002 RMK A01 T02200169  RH  073%=      5-min Rain = 0
KGO1 060324Z 09007KT 22/17 A3002 RMK A01 T02210168  RH  072%=      5-min Rain = 0
KGO1 060325Z 09006KT 22/17 A3002 RMK A01 T02210169  RH  072%=      5-min Rain = 0
KGO1 060326Z 08006KT 22/17 A3002 RMK A01 T02210169  RH  072%=      5-min Rain = 0
KGO1 060327Z 08006KT 22/17 A3002 RMK A01 T02220168  RH  072%=      5-min Rain = 0
KGO1 060328Z 08005KT 22/17 A3002 RMK A01 T02220168  RH  071%=      5-min Rain = 0
KGO1 060329Z 08004KT 22/17 A3002 RMK A01 T02220168  RH  071%=      5-min Rain = 0
KGO1 060330Z 08004KT 22/17 A3002 RMK A01 T02220167  RH  071%=      5-min Rain = 0
KGO1 060331Z 06005KT 22/17 A3002 RMK A01 T02220167  RH  071%=      5-min Rain = 0
KGO1 060332Z 07005KT 22/17 A3002 RMK A01 T02230165  RH  070%=      5-min Rain = 0
KGO1 060333Z 07005KT 22/17 A3002 RMK A01 T02230165  RH  070%=      5-min Rain = 0
KGO1 060334Z 07004KT 22/16 A3002 RMK A01 T02230163  RH  069%=      5-min Rain = 0
KGO1 060335Z 06005KT 22/16 A3002 RMK A01 T02230164  RH  069%=      5-min Rain = 0
KGO1 060336Z 07009KT 22/17 A3002 RMK A01 T02240165  RH  069%=      5-min Rain = 0
KGO1 060337Z 07008KT 22/16 A3002 RMK A01 T02230161  RH  068%=      5-min Rain = 0
KGO1 060338Z 07005KT 22/16 A3002 RMK A01 T02230163  RH  069%=      5-min Rain = 0
KGO1 060339Z 06008KT 22/16 A3002 RMK A01 T02230163  RH  069%=      5-min Rain = 0
KGO1 060340Z 06008KT 22/16 A3002 RMK A01 T02220162  RH  069%=      5-min Rain = 0
KGO1 060341Z 06009KT 22/16 A3002 RMK A01 T02210161  RH  069%=      5-min Rain = 0
KGO1 060342Z 05009KT 22/16 A3002 RMK A01 T02200161  RH  069%=      5-min Rain = 0
KGO1 060343Z 06007KT 22/16 A3002 RMK A01 T02200161  RH  069%=      5-min Rain = 0
KGO1 060344Z 06007KT 22/16 A3002 RMK A01 T02190161  RH  070%=      5-min Rain = 0
KGO1 060345Z 06007KT 22/16 A3002 RMK A01 T02190162  RH  070%=      5-min Rain = 0
KGO1 060346Z 06008KT 22/16 A3002 RMK A01 T02180161  RH  070%=      5-min Rain = 0
KGO1 060347Z 07010KT 22/16 A3002 RMK A01 T02180162  RH  071%=      5-min Rain = 0
KGO1 060348Z 06008KT 22/16 A3002 RMK A01 T02180164  RH  071%=      5-min Rain = 0
KGO1 060349Z 06008KT 22/17 A3002 RMK A01 T02180165  RH  072%=      5-min Rain = 0
KGO1 060350Z 06008KT 22/17 A3002 RMK A01 T02180166  RH  073%=      5-min Rain = 0
KGO1 060351Z 06010KT 22/17 A3002 RMK A01 T02170167  RH  073%=      5-min Rain = 0
KGO1 060352Z 06008KT 22/17 A3002 RMK A01 T02160168  RH  074%=      5-min Rain = 0
KGO1 060353Z 06009KT 22/17 A3002 RMK A01 T02160169  RH  075%=      5-min Rain = 0
KGO1 060354Z 06008KT 22/17 A3002 RMK A01 T02160171  RH  075%=      5-min Rain = 0
KGO1 060355Z 06008KT 22/17 A3002 RMK A01 T02150171  RH  076%=      5-min Rain = 0
KGO1 060356Z 06007KT 21/17 A3002 RMK A01 T02140172  RH  077%=      5-min Rain = 0
KGO1 060357Z 06007KT 21/17 A3002 RMK A01 T02140173  RH  078%=      5-min Rain = 0
KGO1 060358Z 06008KT 21/18 A3002 RMK A01 T02130175  RH  079%=      5-min Rain = 0
KGO1 060359Z 07006KT 21/18 A3002 RMK A01 T02130177  RH  080%=      5-min Rain = 0
KGO1 060400Z 08008KT 21/18 A3002 RMK A01 T02130178  RH  080%=      5-min Rain = 0
KGO1 060401Z 08007KT 21/18 A3002 RMK A01 T02130179  RH  081%=      5-min Rain = 0
KGO1 060402Z 08008KT 21/18 A3002 RMK A01 T02130180  RH  082%=      5-min Rain = 0
KGO1 060403Z 08007KT 21/18 A3002 RMK A01 T02130181  RH  082%=      5-min Rain = 0
KGO1 060404Z 08007KT 21/18 A3002 RMK A01 T02130182  RH  083%=      5-min Rain = 0
KGO1 060405Z 08007KT 21/18 A3002 RMK A01 T02130184  RH  083%=      5-min Rain = 0
KGO1 060406Z 09006KT 21/19 A3002 RMK A01 T02130185  RH  084%=      5-min Rain = 0
KGO1 060407Z 09006KT 21/19 A3003 RMK A01 T02130185  RH  084%=      5-min Rain = 0
KGO1 060408Z 09006KT 21/19 A3003 RMK A01 T02120185  RH  085%=      5-min Rain = 0
KGO1 060409Z 09006KT 21/19 A3003 RMK A01 T02120186  RH  085%=      5-min Rain = 0
KGO1 060410Z 09006KT 21/19 A3003 RMK A01 T02120186  RH  085%=      5-min Rain = 0
KGO1 060411Z 09005KT 21/19 A3003 RMK A01 T02120186  RH  085%=      5-min Rain = 0
KGO1 060412Z 09006KT 21/19 A3003 RMK A01 T02120187  RH  086%=      5-min Rain = 0
KGO1 060413Z 10006KT 21/19 A3003 RMK A01 T02120187  RH  086%=      5-min Rain = 0
KGO1 060414Z 10006KT 21/19 A3003 RMK A01 T02120187  RH  086%=      5-min Rain = 0
KGO1 060415Z 11006KT 21/19 A3004 RMK A01 T02120187  RH  086%=      5-min Rain = 0
KGO1 060416Z 11005KT 21/19 A3004 RMK A01 T02120187  RH  086%=      5-min Rain = 0
KGO1 060417Z 11005KT 21/19 A3004 RMK A01 T02110188  RH  086%=      5-min Rain = 0
KGO1 060418Z 11005KT 21/19 A3004 RMK A01 T02110188  RH  087%=      5-min Rain = 0
KGO1 060419Z 11006KT 21/19 A3004 RMK A01 T02110189  RH  087%=      5-min Rain = 0
KGO1 060420Z 10005KT 21/19 A3004 RMK A01 T02120189  RH  087%=      5-min Rain = 0
KGO1 060421Z 10005KT 21/19 A3004 RMK A01 T02110188  RH  087%=      5-min Rain = 0
KGO1 060422Z 09006KT 21/19 A3004 RMK A01 T02110189  RH  087%=      5-min Rain = 0
KGO1 060423Z 10005KT 21/19 A3004 RMK A01 T02110189  RH  087%=      5-min Rain = 0
KGO1 060424Z 09005KT 21/19 A3004 RMK A01 T02100189  RH  088%=      5-min Rain = 0
KGO1 060425Z 09004KT 21/19 A3004 RMK A01 T02110190  RH  088%=      5-min Rain = 0
KGO1 060426Z 09004KT 21/19 A3004 RMK A01 T02100189  RH  088%=      5-min Rain = 0
KGO1 060427Z 07004KT 21/19 A3004 RMK A01 T02100189  RH  088%=      5-min Rain = 0
KGO1 060428Z 09004KT 21/19 A3004 RMK A01 T02100190  RH  088%=      5-min Rain = 0
KGO1 060429Z 09004KT 21/19 A3004 RMK A01 T02090190  RH  089%=      5-min Rain = 0
KGO1 060430Z 07002KT 21/19 A3004 RMK A01 T02100190  RH  089%=      5-min Rain = 0
KGO1 060431Z 07003KT 21/19 A3005 RMK A01 T02090190  RH  089%=      5-min Rain = 0
KGO1 060432Z 06004KT 21/19 A3005 RMK A01 T02100191  RH  089%=      5-min Rain = 0
KGO1 060433Z 05003KT 21/19 A3005 RMK A01 T02100191  RH  089%=      5-min Rain = 0
KGO1 060434Z 05003KT 21/19 A3005 RMK A01 T02100190  RH  089%=      5-min Rain = 0
KGO1 060435Z 05002KT 21/19 A3005 RMK A01 T02090191  RH  089%=      5-min Rain = 0
KGO1 060436Z 05002KT 21/19 A3005 RMK A01 T02090190  RH  089%=      5-min Rain = 0
KGO1 060437Z 05002KT 21/19 A3005 RMK A01 T02090190  RH  089%=      5-min Rain = 0
KGO1 060438Z 07003KT 21/19 A3005 RMK A01 T02080190  RH  089%=      5-min Rain = 0
KGO1 060439Z 07003KT 21/19 A3005 RMK A01 T02090191  RH  089%=      5-min Rain = 0
KGO1 060440Z 06002KT 21/19 A3005 RMK A01 T02080190  RH  090%=      5-min Rain = 0
KGO1 060441Z 09002KT 21/19 A3005 RMK A01 T02080191  RH  090%=      5-min Rain = 0
KGO1 060442Z 08002KT 21/19 A3005 RMK A01 T02080191  RH  090%=      5-min Rain = 0
KGO1 060443Z 10002KT 21/19 A3005 RMK A01 T02080190  RH  089%=      5-min Rain = 0
KGO1 060444Z 08001KT 21/19 A3004 RMK A01 T02080190  RH  090%=      5-min Rain = 0
KGO1 060445Z 11002KT 21/19 A3004 RMK A01 T02080191  RH  090%=      5-min Rain = 0
KGO1 060446Z 09003KT 21/19 A3004 RMK A01 T02080191  RH  090%=      5-min Rain = 0
KGO1 060447Z 10003KT 21/19 A3004 RMK A01 T02080191  RH  090%=      5-min Rain = 0
KGO1 060448Z 09003KT 21/19 A3004 RMK A01 T02070191  RH  090%=      5-min Rain = 0
KGO1 060449Z 08002KT 21/19 A3004 RMK A01 T02070191  RH  090%=      5-min Rain = 0
KGO1 060450Z 08003KT 21/19 A3004 RMK A01 T02070191  RH  090%=      5-min Rain = 0
KGO1 060451Z 08003KT 21/19 A3004 RMK A01 T02070192  RH  091%=      5-min Rain = 0
KGO1 060452Z 08003KT 21/19 A3004 RMK A01 T02070192  RH  091%=      5-min Rain = 0
KGO1 060453Z 08003KT 21/19 A3004 RMK A01 T02070192  RH  091%=      5-min Rain = 0
KGO1 060454Z 09003KT 21/19 A3004 RMK A01 T02080192  RH  091%=      5-min Rain = 0
KGO1 060455Z 09003KT 21/19 A3004 RMK A01 T02080192  RH  090%=      5-min Rain = 0
KGO1 060456Z 09003KT 21/19 A3004 RMK A01 T02090193  RH  091%=      5-min Rain = 0
KGO1 060457Z 09004KT 21/19 A3004 RMK A01 T02090192  RH  090%=      5-min Rain = 0
KGO1 060458Z 09004KT 21/19 A3005 RMK A01 T02080192  RH  090%=      5-min Rain = 0
KGO1 060459Z 09005KT 21/19 A3005 RMK A01 T02090193  RH  091%=      5-min Rain = 0

Page generated in 0.1221 seconds.